<?xml version="1.0" encoding="UTF-8"?>
<gpx version="1.0" creator="GPSBabel - http://www.gpsbabel.org" xmlns="http://www.topografix.com/GPX/1/0">
  <time>2020-02-23T02:27:01.284Z</time>
  <bounds minlat="17.031223830" minlon="-96.385258880" maxlat="17.043357110" maxlon="-96.380309140"/>
  <trk>
    <name>Piedra Tenate Hike.PatMemo.2020-01-21</name>
    <trkseg>
      <trkpt lat="17.043261860" lon="-96.380335640">
        <ele>2664.200</ele>
        <time>2020-01-21T16:50:32Z</time>
      </trkpt>
      <trkpt lat="17.043235940" lon="-96.380309140">
        <ele>2661.900</ele>
        <time>2020-01-21T16:51:38Z</time>
      </trkpt>
      <trkpt lat="17.043253130" lon="-96.380343830">
        <ele>2665.300</ele>
        <time>2020-01-21T16:57:18Z</time>
      </trkpt>
      <trkpt lat="17.043286310" lon="-96.380359900">
        <ele>2662.700</ele>
        <time>2020-01-21T16:59:44Z</time>
      </trkpt>
      <trkpt lat="17.043309780" lon="-96.380388970">
        <ele>2662.400</ele>
        <time>2020-01-21T16:59:52Z</time>
      </trkpt>
      <trkpt lat="17.043317060" lon="-96.380431050">
        <ele>2662.000</ele>
        <time>2020-01-21T16:59:58Z</time>
      </trkpt>
      <trkpt lat="17.043333600" lon="-96.380465320">
        <ele>2663.200</ele>
        <time>2020-01-21T17:00:09Z</time>
      </trkpt>
      <trkpt lat="17.043329450" lon="-96.380505290">
        <ele>2662.900</ele>
        <time>2020-01-21T17:00:21Z</time>
      </trkpt>
      <trkpt lat="17.043326420" lon="-96.380545880">
        <ele>2661.600</ele>
        <time>2020-01-21T17:00:25Z</time>
      </trkpt>
      <trkpt lat="17.043319200" lon="-96.380590120">
        <ele>2660.800</ele>
        <time>2020-01-21T17:00:30Z</time>
      </trkpt>
      <trkpt lat="17.043310320" lon="-96.380634770">
        <ele>2660.100</ele>
        <time>2020-01-21T17:00:34Z</time>
      </trkpt>
      <trkpt lat="17.043314060" lon="-96.380676980">
        <ele>2659.700</ele>
        <time>2020-01-21T17:00:41Z</time>
      </trkpt>
      <trkpt lat="17.043305940" lon="-96.380716410">
        <ele>2660.100</ele>
        <time>2020-01-21T17:00:46Z</time>
      </trkpt>
      <trkpt lat="17.043299460" lon="-96.380758630">
        <ele>2659.400</ele>
        <time>2020-01-21T17:00:50Z</time>
      </trkpt>
      <trkpt lat="17.043284490" lon="-96.380796050">
        <ele>2659.600</ele>
        <time>2020-01-21T17:00:54Z</time>
      </trkpt>
      <trkpt lat="17.043269990" lon="-96.380839830">
        <ele>2659.100</ele>
        <time>2020-01-21T17:00:59Z</time>
      </trkpt>
      <trkpt lat="17.043264000" lon="-96.380882620">
        <ele>2658.100</ele>
        <time>2020-01-21T17:01:03Z</time>
      </trkpt>
      <trkpt lat="17.043258350" lon="-96.380924590">
        <ele>2656.800</ele>
        <time>2020-01-21T17:01:08Z</time>
      </trkpt>
      <trkpt lat="17.043252480" lon="-96.380966920">
        <ele>2655.400</ele>
        <time>2020-01-21T17:01:14Z</time>
      </trkpt>
      <trkpt lat="17.043239340" lon="-96.381006770">
        <ele>2653.300</ele>
        <time>2020-01-21T17:01:23Z</time>
      </trkpt>
      <trkpt lat="17.043235180" lon="-96.381048370">
        <ele>2652.200</ele>
        <time>2020-01-21T17:01:28Z</time>
      </trkpt>
      <trkpt lat="17.043226130" lon="-96.381090420">
        <ele>2652.500</ele>
        <time>2020-01-21T17:01:33Z</time>
      </trkpt>
      <trkpt lat="17.043223320" lon="-96.381131660">
        <ele>2652.000</ele>
        <time>2020-01-21T17:01:38Z</time>
      </trkpt>
      <trkpt lat="17.043229380" lon="-96.381170140">
        <ele>2651.900</ele>
        <time>2020-01-21T17:01:43Z</time>
      </trkpt>
      <trkpt lat="17.043221620" lon="-96.381211950">
        <ele>2652.600</ele>
        <time>2020-01-21T17:01:48Z</time>
      </trkpt>
      <trkpt lat="17.043210130" lon="-96.381257170">
        <ele>2650.600</ele>
        <time>2020-01-21T17:01:54Z</time>
      </trkpt>
      <trkpt lat="17.043200220" lon="-96.381300670">
        <ele>2649.900</ele>
        <time>2020-01-21T17:02:00Z</time>
      </trkpt>
      <trkpt lat="17.043187470" lon="-96.381336820">
        <ele>2648.900</ele>
        <time>2020-01-21T17:02:05Z</time>
      </trkpt>
      <trkpt lat="17.043172970" lon="-96.381381230">
        <ele>2647.600</ele>
        <time>2020-01-21T17:02:10Z</time>
      </trkpt>
      <trkpt lat="17.043153420" lon="-96.381418780">
        <ele>2648.100</ele>
        <time>2020-01-21T17:02:14Z</time>
      </trkpt>
      <trkpt lat="17.043135340" lon="-96.381456150">
        <ele>2648.400</ele>
        <time>2020-01-21T17:02:18Z</time>
      </trkpt>
      <trkpt lat="17.043129700" lon="-96.381499240">
        <ele>2649.200</ele>
        <time>2020-01-21T17:02:22Z</time>
      </trkpt>
      <trkpt lat="17.043140070" lon="-96.381545800">
        <ele>2649.000</ele>
        <time>2020-01-21T17:02:26Z</time>
      </trkpt>
      <trkpt lat="17.043154980" lon="-96.381589410">
        <ele>2649.000</ele>
        <time>2020-01-21T17:02:30Z</time>
      </trkpt>
      <trkpt lat="17.043179520" lon="-96.381629510">
        <ele>2648.700</ele>
        <time>2020-01-21T17:02:34Z</time>
      </trkpt>
      <trkpt lat="17.043199020" lon="-96.381669610">
        <ele>2648.800</ele>
        <time>2020-01-21T17:02:39Z</time>
      </trkpt>
      <trkpt lat="17.043214650" lon="-96.381710000">
        <ele>2648.300</ele>
        <time>2020-01-21T17:02:45Z</time>
      </trkpt>
      <trkpt lat="17.043239110" lon="-96.381747800">
        <ele>2648.300</ele>
        <time>2020-01-21T17:02:50Z</time>
      </trkpt>
      <trkpt lat="17.043245220" lon="-96.381791930">
        <ele>2648.300</ele>
        <time>2020-01-21T17:02:55Z</time>
      </trkpt>
      <trkpt lat="17.043244320" lon="-96.381834260">
        <ele>2648.600</ele>
        <time>2020-01-21T17:03:00Z</time>
      </trkpt>
      <trkpt lat="17.043250930" lon="-96.381880990">
        <ele>2648.500</ele>
        <time>2020-01-21T17:03:05Z</time>
      </trkpt>
      <trkpt lat="17.043259340" lon="-96.381921040">
        <ele>2648.600</ele>
        <time>2020-01-21T17:03:10Z</time>
      </trkpt>
      <trkpt lat="17.043262760" lon="-96.381968340">
        <ele>2564.200</ele>
        <time>2020-01-21T17:03:15Z</time>
      </trkpt>
      <trkpt lat="17.043262850" lon="-96.382007590">
        <ele>2629.900</ele>
        <time>2020-01-21T17:03:21Z</time>
      </trkpt>
      <trkpt lat="17.043266120" lon="-96.382049620">
        <ele>2568.600</ele>
        <time>2020-01-21T17:03:25Z</time>
      </trkpt>
      <trkpt lat="17.043260070" lon="-96.382091680">
        <ele>2630.500</ele>
        <time>2020-01-21T17:03:31Z</time>
      </trkpt>
      <trkpt lat="17.043286270" lon="-96.382124010">
        <ele>2645.800</ele>
        <time>2020-01-21T17:03:49Z</time>
      </trkpt>
      <trkpt lat="17.043317990" lon="-96.382154140">
        <ele>2646.700</ele>
        <time>2020-01-21T17:03:53Z</time>
      </trkpt>
      <trkpt lat="17.043341890" lon="-96.382184040">
        <ele>2645.500</ele>
        <time>2020-01-21T17:03:57Z</time>
      </trkpt>
      <trkpt lat="17.043344350" lon="-96.382226560">
        <ele>2646.200</ele>
        <time>2020-01-21T17:04:01Z</time>
      </trkpt>
      <trkpt lat="17.043351650" lon="-96.382274020">
        <ele>2647.600</ele>
        <time>2020-01-21T17:04:05Z</time>
      </trkpt>
      <trkpt lat="17.043356800" lon="-96.382315250">
        <ele>2648.400</ele>
        <time>2020-01-21T17:04:09Z</time>
      </trkpt>
      <trkpt lat="17.043344940" lon="-96.382352790">
        <ele>2649.600</ele>
        <time>2020-01-21T17:04:21Z</time>
      </trkpt>
      <trkpt lat="17.043357110" lon="-96.382389780">
        <ele>2651.600</ele>
        <time>2020-01-21T17:05:21Z</time>
      </trkpt>
      <trkpt lat="17.043338490" lon="-96.382434010">
        <ele>2651.800</ele>
        <time>2020-01-21T17:05:32Z</time>
      </trkpt>
      <trkpt lat="17.043316830" lon="-96.382471930">
        <ele>2651.800</ele>
        <time>2020-01-21T17:05:36Z</time>
      </trkpt>
      <trkpt lat="17.043291830" lon="-96.382512140">
        <ele>2652.400</ele>
        <time>2020-01-21T17:05:40Z</time>
      </trkpt>
      <trkpt lat="17.043278490" lon="-96.382549910">
        <ele>2652.500</ele>
        <time>2020-01-21T17:05:44Z</time>
      </trkpt>
      <trkpt lat="17.043258930" lon="-96.382586360">
        <ele>2653.100</ele>
        <time>2020-01-21T17:06:00Z</time>
      </trkpt>
      <trkpt lat="17.043236760" lon="-96.382618560">
        <ele>2654.100</ele>
        <time>2020-01-21T17:06:07Z</time>
      </trkpt>
      <trkpt lat="17.043206400" lon="-96.382649870">
        <ele>2655.500</ele>
        <time>2020-01-21T17:06:13Z</time>
      </trkpt>
      <trkpt lat="17.043187050" lon="-96.382682680">
        <ele>2655.200</ele>
        <time>2020-01-21T17:06:18Z</time>
      </trkpt>
      <trkpt lat="17.043162520" lon="-96.382713280">
        <ele>2656.700</ele>
        <time>2020-01-21T17:06:29Z</time>
      </trkpt>
      <trkpt lat="17.043139610" lon="-96.382748510">
        <ele>2656.000</ele>
        <time>2020-01-21T17:06:33Z</time>
      </trkpt>
      <trkpt lat="17.043112030" lon="-96.382778630">
        <ele>2657.000</ele>
        <time>2020-01-21T17:06:38Z</time>
      </trkpt>
      <trkpt lat="17.043071720" lon="-96.382794150">
        <ele>2658.500</ele>
        <time>2020-01-21T17:06:44Z</time>
      </trkpt>
      <trkpt lat="17.043035860" lon="-96.382809610">
        <ele>2658.900</ele>
        <time>2020-01-21T17:06:50Z</time>
      </trkpt>
      <trkpt lat="17.043007130" lon="-96.382834450">
        <ele>2661.500</ele>
        <time>2020-01-21T17:06:58Z</time>
      </trkpt>
      <trkpt lat="17.042980360" lon="-96.382861240">
        <ele>2663.600</ele>
        <time>2020-01-21T17:07:03Z</time>
      </trkpt>
      <trkpt lat="17.042942380" lon="-96.382863650">
        <ele>2664.200</ele>
        <time>2020-01-21T17:07:08Z</time>
      </trkpt>
      <trkpt lat="17.042909890" lon="-96.382893790">
        <ele>2663.400</ele>
        <time>2020-01-21T17:07:13Z</time>
      </trkpt>
      <trkpt lat="17.042881130" lon="-96.382924370">
        <ele>2664.200</ele>
        <time>2020-01-21T17:07:20Z</time>
      </trkpt>
      <trkpt lat="17.042853310" lon="-96.382952710">
        <ele>2664.100</ele>
        <time>2020-01-21T17:07:25Z</time>
      </trkpt>
      <trkpt lat="17.042833420" lon="-96.382986790">
        <ele>2663.500</ele>
        <time>2020-01-21T17:07:30Z</time>
      </trkpt>
      <trkpt lat="17.042810710" lon="-96.383016320">
        <ele>2662.800</ele>
        <time>2020-01-21T17:07:37Z</time>
      </trkpt>
      <trkpt lat="17.042772050" lon="-96.383025370">
        <ele>2542.900</ele>
        <time>2020-01-21T17:08:30Z</time>
      </trkpt>
      <trkpt lat="17.042735570" lon="-96.383021050">
        <ele>2662.800</ele>
        <time>2020-01-21T17:09:08Z</time>
      </trkpt>
      <trkpt lat="17.042708520" lon="-96.382993670">
        <ele>2664.800</ele>
        <time>2020-01-21T17:09:12Z</time>
      </trkpt>
      <trkpt lat="17.042669350" lon="-96.382987150">
        <ele>2666.700</ele>
        <time>2020-01-21T17:09:16Z</time>
      </trkpt>
      <trkpt lat="17.042631290" lon="-96.382992900">
        <ele>2668.100</ele>
        <time>2020-01-21T17:09:20Z</time>
      </trkpt>
      <trkpt lat="17.042591360" lon="-96.383001660">
        <ele>2669.400</ele>
        <time>2020-01-21T17:09:25Z</time>
      </trkpt>
      <trkpt lat="17.042554460" lon="-96.383006540">
        <ele>2669.600</ele>
        <time>2020-01-21T17:09:29Z</time>
      </trkpt>
      <trkpt lat="17.042514490" lon="-96.383006190">
        <ele>2670.400</ele>
        <time>2020-01-21T17:09:33Z</time>
      </trkpt>
      <trkpt lat="17.042475310" lon="-96.383010190">
        <ele>2670.300</ele>
        <time>2020-01-21T17:09:39Z</time>
      </trkpt>
      <trkpt lat="17.042441070" lon="-96.382994170">
        <ele>2670.700</ele>
        <time>2020-01-21T17:09:45Z</time>
      </trkpt>
      <trkpt lat="17.042404600" lon="-96.382990390">
        <ele>2671.600</ele>
        <time>2020-01-21T17:09:50Z</time>
      </trkpt>
      <trkpt lat="17.042367480" lon="-96.382990240">
        <ele>2671.600</ele>
        <time>2020-01-21T17:09:56Z</time>
      </trkpt>
      <trkpt lat="17.042330940" lon="-96.382987340">
        <ele>2671.600</ele>
        <time>2020-01-21T17:10:03Z</time>
      </trkpt>
      <trkpt lat="17.042299050" lon="-96.383006110">
        <ele>2672.600</ele>
        <time>2020-01-21T17:10:38Z</time>
      </trkpt>
      <trkpt lat="17.042260620" lon="-96.383000140">
        <ele>2672.900</ele>
        <time>2020-01-21T17:10:59Z</time>
      </trkpt>
      <trkpt lat="17.042221020" lon="-96.382997270">
        <ele>2672.200</ele>
        <time>2020-01-21T17:11:37Z</time>
      </trkpt>
      <trkpt lat="17.042183180" lon="-96.382982920">
        <ele>2671.900</ele>
        <time>2020-01-21T17:11:58Z</time>
      </trkpt>
      <trkpt lat="17.042149170" lon="-96.382963790">
        <ele>2671.600</ele>
        <time>2020-01-21T17:12:03Z</time>
      </trkpt>
      <trkpt lat="17.042162460" lon="-96.383000790">
        <ele>2671.900</ele>
        <time>2020-01-21T17:13:12Z</time>
      </trkpt>
      <trkpt lat="17.042200630" lon="-96.383006010">
        <ele>2552.100</ele>
        <time>2020-01-21T17:13:16Z</time>
      </trkpt>
      <trkpt lat="17.042162710" lon="-96.382991470">
        <ele>2655.700</ele>
        <time>2020-01-21T17:14:26Z</time>
      </trkpt>
      <trkpt lat="17.042143400" lon="-96.382956960">
        <ele>2669.200</ele>
        <time>2020-01-21T17:14:45Z</time>
      </trkpt>
      <trkpt lat="17.042108910" lon="-96.382942600">
        <ele>2582.600</ele>
        <time>2020-01-21T17:14:50Z</time>
      </trkpt>
      <trkpt lat="17.042066850" lon="-96.382946350">
        <ele>2652.200</ele>
        <time>2020-01-21T17:14:57Z</time>
      </trkpt>
      <trkpt lat="17.042028320" lon="-96.382946620">
        <ele>2659.900</ele>
        <time>2020-01-21T17:15:02Z</time>
      </trkpt>
      <trkpt lat="17.041995020" lon="-96.382927500">
        <ele>2665.100</ele>
        <time>2020-01-21T17:15:12Z</time>
      </trkpt>
      <trkpt lat="17.041953420" lon="-96.382939670">
        <ele>2667.700</ele>
        <time>2020-01-21T17:15:55Z</time>
      </trkpt>
      <trkpt lat="17.041913620" lon="-96.382940980">
        <ele>2668.100</ele>
        <time>2020-01-21T17:15:59Z</time>
      </trkpt>
      <trkpt lat="17.041875430" lon="-96.382944120">
        <ele>2668.000</ele>
        <time>2020-01-21T17:16:04Z</time>
      </trkpt>
      <trkpt lat="17.041838270" lon="-96.382939650">
        <ele>2667.200</ele>
        <time>2020-01-21T17:16:11Z</time>
      </trkpt>
      <trkpt lat="17.041799060" lon="-96.382942260">
        <ele>2667.200</ele>
        <time>2020-01-21T17:16:16Z</time>
      </trkpt>
      <trkpt lat="17.041760590" lon="-96.382935940">
        <ele>2665.100</ele>
        <time>2020-01-21T17:16:25Z</time>
      </trkpt>
      <trkpt lat="17.041726580" lon="-96.382915400">
        <ele>2664.500</ele>
        <time>2020-01-21T17:17:08Z</time>
      </trkpt>
      <trkpt lat="17.041694170" lon="-96.382892520">
        <ele>2663.800</ele>
        <time>2020-01-21T17:17:14Z</time>
      </trkpt>
      <trkpt lat="17.041660530" lon="-96.382875050">
        <ele>2663.400</ele>
        <time>2020-01-21T17:17:30Z</time>
      </trkpt>
      <trkpt lat="17.041625370" lon="-96.382885770">
        <ele>2662.200</ele>
        <time>2020-01-21T17:17:38Z</time>
      </trkpt>
      <trkpt lat="17.041592930" lon="-96.382867510">
        <ele>2661.400</ele>
        <time>2020-01-21T17:17:44Z</time>
      </trkpt>
      <trkpt lat="17.041551640" lon="-96.382863590">
        <ele>2661.200</ele>
        <time>2020-01-21T17:17:50Z</time>
      </trkpt>
      <trkpt lat="17.041511880" lon="-96.382853880">
        <ele>2660.900</ele>
        <time>2020-01-21T17:17:56Z</time>
      </trkpt>
      <trkpt lat="17.041472980" lon="-96.382849300">
        <ele>2660.200</ele>
        <time>2020-01-21T17:18:02Z</time>
      </trkpt>
      <trkpt lat="17.041436510" lon="-96.382844530">
        <ele>2658.500</ele>
        <time>2020-01-21T17:18:17Z</time>
      </trkpt>
      <trkpt lat="17.041397900" lon="-96.382850030">
        <ele>2658.700</ele>
        <time>2020-01-21T17:18:23Z</time>
      </trkpt>
      <trkpt lat="17.041360090" lon="-96.382841380">
        <ele>2658.000</ele>
        <time>2020-01-21T17:18:27Z</time>
      </trkpt>
      <trkpt lat="17.041330610" lon="-96.382815420">
        <ele>2659.100</ele>
        <time>2020-01-21T17:18:33Z</time>
      </trkpt>
      <trkpt lat="17.041293880" lon="-96.382800330">
        <ele>2658.900</ele>
        <time>2020-01-21T17:18:39Z</time>
      </trkpt>
      <trkpt lat="17.041256650" lon="-96.382809040">
        <ele>2658.500</ele>
        <time>2020-01-21T17:18:44Z</time>
      </trkpt>
      <trkpt lat="17.041216380" lon="-96.382817010">
        <ele>2657.000</ele>
        <time>2020-01-21T17:19:35Z</time>
      </trkpt>
      <trkpt lat="17.041177140" lon="-96.382815960">
        <ele>2656.300</ele>
        <time>2020-01-21T17:19:40Z</time>
      </trkpt>
      <trkpt lat="17.041141130" lon="-96.382820450">
        <ele>2655.600</ele>
        <time>2020-01-21T17:19:45Z</time>
      </trkpt>
      <trkpt lat="17.041101250" lon="-96.382817610">
        <ele>2655.100</ele>
        <time>2020-01-21T17:19:50Z</time>
      </trkpt>
      <trkpt lat="17.041056640" lon="-96.382812840">
        <ele>2654.300</ele>
        <time>2020-01-21T17:19:55Z</time>
      </trkpt>
      <trkpt lat="17.041020010" lon="-96.382800390">
        <ele>2652.900</ele>
        <time>2020-01-21T17:20:00Z</time>
      </trkpt>
      <trkpt lat="17.040980430" lon="-96.382803860">
        <ele>2652.900</ele>
        <time>2020-01-21T17:20:09Z</time>
      </trkpt>
      <trkpt lat="17.040943570" lon="-96.382788960">
        <ele>2651.500</ele>
        <time>2020-01-21T17:20:16Z</time>
      </trkpt>
      <trkpt lat="17.040913260" lon="-96.382767540">
        <ele>2651.700</ele>
        <time>2020-01-21T17:20:23Z</time>
      </trkpt>
      <trkpt lat="17.040876780" lon="-96.382753250">
        <ele>2651.100</ele>
        <time>2020-01-21T17:20:49Z</time>
      </trkpt>
      <trkpt lat="17.040851610" lon="-96.382724760">
        <ele>2650.500</ele>
        <time>2020-01-21T17:20:57Z</time>
      </trkpt>
      <trkpt lat="17.040827060" lon="-96.382695010">
        <ele>2648.300</ele>
        <time>2020-01-21T17:21:05Z</time>
      </trkpt>
      <trkpt lat="17.040794020" lon="-96.382671540">
        <ele>2649.000</ele>
        <time>2020-01-21T17:21:12Z</time>
      </trkpt>
      <trkpt lat="17.040751990" lon="-96.382659620">
        <ele>2649.600</ele>
        <time>2020-01-21T17:21:20Z</time>
      </trkpt>
      <trkpt lat="17.040713360" lon="-96.382647780">
        <ele>2648.500</ele>
        <time>2020-01-21T17:21:26Z</time>
      </trkpt>
      <trkpt lat="17.040673330" lon="-96.382657140">
        <ele>2647.000</ele>
        <time>2020-01-21T17:21:33Z</time>
      </trkpt>
      <trkpt lat="17.040641190" lon="-96.382677080">
        <ele>2645.400</ele>
        <time>2020-01-21T17:21:38Z</time>
      </trkpt>
      <trkpt lat="17.040602670" lon="-96.382674690">
        <ele>2646.600</ele>
        <time>2020-01-21T17:21:43Z</time>
      </trkpt>
      <trkpt lat="17.040566250" lon="-96.382672400">
        <ele>2646.700</ele>
        <time>2020-01-21T17:21:47Z</time>
      </trkpt>
      <trkpt lat="17.040525350" lon="-96.382673400">
        <ele>2647.500</ele>
        <time>2020-01-21T17:21:52Z</time>
      </trkpt>
      <trkpt lat="17.040487940" lon="-96.382676310">
        <ele>2647.100</ele>
        <time>2020-01-21T17:21:56Z</time>
      </trkpt>
      <trkpt lat="17.040446940" lon="-96.382676980">
        <ele>2646.200</ele>
        <time>2020-01-21T17:22:04Z</time>
      </trkpt>
      <trkpt lat="17.040406100" lon="-96.382689480">
        <ele>2645.000</ele>
        <time>2020-01-21T17:22:12Z</time>
      </trkpt>
      <trkpt lat="17.040366240" lon="-96.382698050">
        <ele>2644.600</ele>
        <time>2020-01-21T17:22:19Z</time>
      </trkpt>
      <trkpt lat="17.040330150" lon="-96.382695750">
        <ele>2644.800</ele>
        <time>2020-01-21T17:22:51Z</time>
      </trkpt>
      <trkpt lat="17.040293610" lon="-96.382696010">
        <ele>2645.200</ele>
        <time>2020-01-21T17:23:11Z</time>
      </trkpt>
      <trkpt lat="17.040255670" lon="-96.382696560">
        <ele>2645.300</ele>
        <time>2020-01-21T17:23:21Z</time>
      </trkpt>
      <trkpt lat="17.040219310" lon="-96.382694730">
        <ele>2644.700</ele>
        <time>2020-01-21T17:23:32Z</time>
      </trkpt>
      <trkpt lat="17.040180100" lon="-96.382693420">
        <ele>2642.800</ele>
        <time>2020-01-21T17:24:07Z</time>
      </trkpt>
      <trkpt lat="17.040143610" lon="-96.382686590">
        <ele>2642.900</ele>
        <time>2020-01-21T17:24:16Z</time>
      </trkpt>
      <trkpt lat="17.040107790" lon="-96.382675920">
        <ele>2642.800</ele>
        <time>2020-01-21T17:24:30Z</time>
      </trkpt>
      <trkpt lat="17.040074760" lon="-96.382652630">
        <ele>2641.900</ele>
        <time>2020-01-21T17:24:38Z</time>
      </trkpt>
      <trkpt lat="17.040045080" lon="-96.382678320">
        <ele>2639.200</ele>
        <time>2020-01-21T17:26:04Z</time>
      </trkpt>
      <trkpt lat="17.040013480" lon="-96.382699880">
        <ele>2637.900</ele>
        <time>2020-01-21T17:26:09Z</time>
      </trkpt>
      <trkpt lat="17.039978260" lon="-96.382717600">
        <ele>2637.000</ele>
        <time>2020-01-21T17:26:15Z</time>
      </trkpt>
      <trkpt lat="17.039942310" lon="-96.382711190">
        <ele>2637.400</ele>
        <time>2020-01-21T17:26:27Z</time>
      </trkpt>
      <trkpt lat="17.039905450" lon="-96.382721520">
        <ele>2634.900</ele>
        <time>2020-01-21T17:26:33Z</time>
      </trkpt>
      <trkpt lat="17.039869600" lon="-96.382730570">
        <ele>2634.300</ele>
        <time>2020-01-21T17:26:38Z</time>
      </trkpt>
      <trkpt lat="17.039836090" lon="-96.382754550">
        <ele>2632.700</ele>
        <time>2020-01-21T17:26:43Z</time>
      </trkpt>
      <trkpt lat="17.039795570" lon="-96.382760250">
        <ele>2632.500</ele>
        <time>2020-01-21T17:26:50Z</time>
      </trkpt>
      <trkpt lat="17.039753370" lon="-96.382767100">
        <ele>2629.400</ele>
        <time>2020-01-21T17:26:58Z</time>
      </trkpt>
      <trkpt lat="17.039718210" lon="-96.382789090">
        <ele>2627.800</ele>
        <time>2020-01-21T17:27:03Z</time>
      </trkpt>
      <trkpt lat="17.039682380" lon="-96.382806920">
        <ele>2626.200</ele>
        <time>2020-01-21T17:27:10Z</time>
      </trkpt>
      <trkpt lat="17.039647200" lon="-96.382830610">
        <ele>2622.800</ele>
        <time>2020-01-21T17:27:18Z</time>
      </trkpt>
      <trkpt lat="17.039612600" lon="-96.382844910">
        <ele>2622.400</ele>
        <time>2020-01-21T17:27:24Z</time>
      </trkpt>
      <trkpt lat="17.039587200" lon="-96.382872280">
        <ele>2621.900</ele>
        <time>2020-01-21T17:27:32Z</time>
      </trkpt>
      <trkpt lat="17.039551120" lon="-96.382890490">
        <ele>2621.900</ele>
        <time>2020-01-21T17:27:41Z</time>
      </trkpt>
      <trkpt lat="17.039517000" lon="-96.382917550">
        <ele>2621.400</ele>
        <time>2020-01-21T17:27:47Z</time>
      </trkpt>
      <trkpt lat="17.039485960" lon="-96.382945910">
        <ele>2620.900</ele>
        <time>2020-01-21T17:27:52Z</time>
      </trkpt>
      <trkpt lat="17.039455520" lon="-96.382968550">
        <ele>2619.300</ele>
        <time>2020-01-21T17:27:58Z</time>
      </trkpt>
      <trkpt lat="17.039417620" lon="-96.382991080">
        <ele>2619.100</ele>
        <time>2020-01-21T17:28:05Z</time>
      </trkpt>
      <trkpt lat="17.039393320" lon="-96.383021970">
        <ele>2618.900</ele>
        <time>2020-01-21T17:28:16Z</time>
      </trkpt>
      <trkpt lat="17.039359290" lon="-96.383037800">
        <ele>2618.100</ele>
        <time>2020-01-21T17:28:21Z</time>
      </trkpt>
      <trkpt lat="17.039333850" lon="-96.383067270">
        <ele>2617.500</ele>
        <time>2020-01-21T17:28:26Z</time>
      </trkpt>
      <trkpt lat="17.039298620" lon="-96.383093680">
        <ele>2616.200</ele>
        <time>2020-01-21T17:28:32Z</time>
      </trkpt>
      <trkpt lat="17.039265050" lon="-96.383114200">
        <ele>2616.500</ele>
        <time>2020-01-21T17:28:38Z</time>
      </trkpt>
      <trkpt lat="17.039239900" lon="-96.383142430">
        <ele>2616.200</ele>
        <time>2020-01-21T17:28:48Z</time>
      </trkpt>
      <trkpt lat="17.039201710" lon="-96.383155750">
        <ele>2616.100</ele>
        <time>2020-01-21T17:28:54Z</time>
      </trkpt>
      <trkpt lat="17.039166170" lon="-96.383180870">
        <ele>2616.200</ele>
        <time>2020-01-21T17:28:59Z</time>
      </trkpt>
      <trkpt lat="17.039128430" lon="-96.383197260">
        <ele>2615.800</ele>
        <time>2020-01-21T17:29:04Z</time>
      </trkpt>
      <trkpt lat="17.039111360" lon="-96.383231670">
        <ele>2615.800</ele>
        <time>2020-01-21T17:29:18Z</time>
      </trkpt>
      <trkpt lat="17.039076660" lon="-96.383214580">
        <ele>2615.800</ele>
        <time>2020-01-21T17:29:56Z</time>
      </trkpt>
      <trkpt lat="17.039042310" lon="-96.383197610">
        <ele>2616.200</ele>
        <time>2020-01-21T17:30:13Z</time>
      </trkpt>
      <trkpt lat="17.039057120" lon="-96.383231980">
        <ele>2618.000</ele>
        <time>2020-01-21T17:30:39Z</time>
      </trkpt>
      <trkpt lat="17.039018990" lon="-96.383233400">
        <ele>2618.000</ele>
        <time>2020-01-21T17:30:46Z</time>
      </trkpt>
      <trkpt lat="17.038976630" lon="-96.383251550">
        <ele>2617.500</ele>
        <time>2020-01-21T17:30:51Z</time>
      </trkpt>
      <trkpt lat="17.038939500" lon="-96.383258120">
        <ele>2617.600</ele>
        <time>2020-01-21T17:30:55Z</time>
      </trkpt>
      <trkpt lat="17.038905110" lon="-96.383278360">
        <ele>2618.100</ele>
        <time>2020-01-21T17:31:01Z</time>
      </trkpt>
      <trkpt lat="17.038868280" lon="-96.383274900">
        <ele>2618.100</ele>
        <time>2020-01-21T17:31:06Z</time>
      </trkpt>
      <trkpt lat="17.038831430" lon="-96.383297070">
        <ele>2616.500</ele>
        <time>2020-01-21T17:31:11Z</time>
      </trkpt>
      <trkpt lat="17.038795330" lon="-96.383319350">
        <ele>2616.300</ele>
        <time>2020-01-21T17:31:16Z</time>
      </trkpt>
      <trkpt lat="17.038758050" lon="-96.383339130">
        <ele>2616.500</ele>
        <time>2020-01-21T17:31:21Z</time>
      </trkpt>
      <trkpt lat="17.038719400" lon="-96.383357360">
        <ele>2615.900</ele>
        <time>2020-01-21T17:31:26Z</time>
      </trkpt>
      <trkpt lat="17.038677600" lon="-96.383363220">
        <ele>2617.400</ele>
        <time>2020-01-21T17:31:32Z</time>
      </trkpt>
      <trkpt lat="17.038634900" lon="-96.383368390">
        <ele>2616.700</ele>
        <time>2020-01-21T17:31:37Z</time>
      </trkpt>
      <trkpt lat="17.038601460" lon="-96.383389050">
        <ele>2616.500</ele>
        <time>2020-01-21T17:31:47Z</time>
      </trkpt>
      <trkpt lat="17.038563840" lon="-96.383386450">
        <ele>2616.400</ele>
        <time>2020-01-21T17:32:32Z</time>
      </trkpt>
      <trkpt lat="17.038527690" lon="-96.383370780">
        <ele>2614.100</ele>
        <time>2020-01-21T17:33:16Z</time>
      </trkpt>
      <trkpt lat="17.038489470" lon="-96.383363850">
        <ele>2613.200</ele>
        <time>2020-01-21T17:33:20Z</time>
      </trkpt>
      <trkpt lat="17.038449630" lon="-96.383358800">
        <ele>2613.400</ele>
        <time>2020-01-21T17:33:25Z</time>
      </trkpt>
      <trkpt lat="17.038412390" lon="-96.383354320">
        <ele>2614.300</ele>
        <time>2020-01-21T17:33:30Z</time>
      </trkpt>
      <trkpt lat="17.038373860" lon="-96.383347980">
        <ele>2613.400</ele>
        <time>2020-01-21T17:33:36Z</time>
      </trkpt>
      <trkpt lat="17.038337310" lon="-96.383341720">
        <ele>2613.300</ele>
        <time>2020-01-21T17:34:01Z</time>
      </trkpt>
      <trkpt lat="17.038293700" lon="-96.383332330">
        <ele>2614.000</ele>
        <time>2020-01-21T17:34:06Z</time>
      </trkpt>
      <trkpt lat="17.038257680" lon="-96.383335740">
        <ele>2611.400</ele>
        <time>2020-01-21T17:34:18Z</time>
      </trkpt>
      <trkpt lat="17.038220970" lon="-96.383336580">
        <ele>2610.700</ele>
        <time>2020-01-21T17:34:30Z</time>
      </trkpt>
      <trkpt lat="17.038184520" lon="-96.383335580">
        <ele>2610.500</ele>
        <time>2020-01-21T17:34:36Z</time>
      </trkpt>
      <trkpt lat="17.038142850" lon="-96.383341200">
        <ele>2609.700</ele>
        <time>2020-01-21T17:34:47Z</time>
      </trkpt>
      <trkpt lat="17.038101420" lon="-96.383336700">
        <ele>2608.900</ele>
        <time>2020-01-21T17:34:52Z</time>
      </trkpt>
      <trkpt lat="17.038064280" lon="-96.383344890">
        <ele>2608.300</ele>
        <time>2020-01-21T17:34:59Z</time>
      </trkpt>
      <trkpt lat="17.038023770" lon="-96.383346760">
        <ele>2608.800</ele>
        <time>2020-01-21T17:35:07Z</time>
      </trkpt>
      <trkpt lat="17.037983920" lon="-96.383355510">
        <ele>2607.400</ele>
        <time>2020-01-21T17:35:13Z</time>
      </trkpt>
      <trkpt lat="17.037947510" lon="-96.383367120">
        <ele>2606.600</ele>
        <time>2020-01-21T17:35:20Z</time>
      </trkpt>
      <trkpt lat="17.037906700" lon="-96.383362350">
        <ele>2606.100</ele>
        <time>2020-01-21T17:35:25Z</time>
      </trkpt>
      <trkpt lat="17.037870270" lon="-96.383360780">
        <ele>2605.300</ele>
        <time>2020-01-21T17:35:34Z</time>
      </trkpt>
      <trkpt lat="17.037830730" lon="-96.383366850">
        <ele>2603.900</ele>
        <time>2020-01-21T17:36:23Z</time>
      </trkpt>
      <trkpt lat="17.037796790" lon="-96.383381160">
        <ele>2602.700</ele>
        <time>2020-01-21T17:36:34Z</time>
      </trkpt>
      <trkpt lat="17.037759090" lon="-96.383367970">
        <ele>2603.700</ele>
        <time>2020-01-21T17:36:40Z</time>
      </trkpt>
      <trkpt lat="17.037720190" lon="-96.383366880">
        <ele>2603.900</ele>
        <time>2020-01-21T17:36:46Z</time>
      </trkpt>
      <trkpt lat="17.037681460" lon="-96.383379280">
        <ele>2602.700</ele>
        <time>2020-01-21T17:36:52Z</time>
      </trkpt>
      <trkpt lat="17.037645130" lon="-96.383379240">
        <ele>2603.300</ele>
        <time>2020-01-21T17:37:00Z</time>
      </trkpt>
      <trkpt lat="17.037612010" lon="-96.383398220">
        <ele>2600.700</ele>
        <time>2020-01-21T17:37:05Z</time>
      </trkpt>
      <trkpt lat="17.037576980" lon="-96.383416880">
        <ele>2600.200</ele>
        <time>2020-01-21T17:37:09Z</time>
      </trkpt>
      <trkpt lat="17.037539670" lon="-96.383422170">
        <ele>2600.700</ele>
        <time>2020-01-21T17:37:22Z</time>
      </trkpt>
      <trkpt lat="17.037503680" lon="-96.383436830">
        <ele>2601.800</ele>
        <time>2020-01-21T17:37:35Z</time>
      </trkpt>
      <trkpt lat="17.037468830" lon="-96.383452230">
        <ele>2601.200</ele>
        <time>2020-01-21T17:37:40Z</time>
      </trkpt>
      <trkpt lat="17.037429010" lon="-96.383466180">
        <ele>2599.600</ele>
        <time>2020-01-21T17:37:50Z</time>
      </trkpt>
      <trkpt lat="17.037399440" lon="-96.383492300">
        <ele>2600.300</ele>
        <time>2020-01-21T17:37:57Z</time>
      </trkpt>
      <trkpt lat="17.037363070" lon="-96.383503810">
        <ele>2601.100</ele>
        <time>2020-01-21T17:38:03Z</time>
      </trkpt>
      <trkpt lat="17.037322960" lon="-96.383518310">
        <ele>2602.600</ele>
        <time>2020-01-21T17:38:10Z</time>
      </trkpt>
      <trkpt lat="17.037292940" lon="-96.383539990">
        <ele>2602.200</ele>
        <time>2020-01-21T17:38:15Z</time>
      </trkpt>
      <trkpt lat="17.037257490" lon="-96.383557150">
        <ele>2601.900</ele>
        <time>2020-01-21T17:38:21Z</time>
      </trkpt>
      <trkpt lat="17.037221390" lon="-96.383570870">
        <ele>2604.200</ele>
        <time>2020-01-21T17:38:37Z</time>
      </trkpt>
      <trkpt lat="17.037207430" lon="-96.383606050">
        <ele>2603.700</ele>
        <time>2020-01-21T17:38:55Z</time>
      </trkpt>
      <trkpt lat="17.037183960" lon="-96.383637150">
        <ele>2604.000</ele>
        <time>2020-01-21T17:39:01Z</time>
      </trkpt>
      <trkpt lat="17.037149140" lon="-96.383659960">
        <ele>2604.400</ele>
        <time>2020-01-21T17:39:35Z</time>
      </trkpt>
      <trkpt lat="17.037135140" lon="-96.383697030">
        <ele>2605.000</ele>
        <time>2020-01-21T17:39:39Z</time>
      </trkpt>
      <trkpt lat="17.037104990" lon="-96.383725490">
        <ele>2605.400</ele>
        <time>2020-01-21T17:39:43Z</time>
      </trkpt>
      <trkpt lat="17.037066340" lon="-96.383729180">
        <ele>2605.600</ele>
        <time>2020-01-21T17:39:56Z</time>
      </trkpt>
      <trkpt lat="17.037029440" lon="-96.383746540">
        <ele>2606.300</ele>
        <time>2020-01-21T17:40:00Z</time>
      </trkpt>
      <trkpt lat="17.036993640" lon="-96.383758080">
        <ele>2606.800</ele>
        <time>2020-01-21T17:40:04Z</time>
      </trkpt>
      <trkpt lat="17.036958450" lon="-96.383774970">
        <ele>2604.900</ele>
        <time>2020-01-21T17:40:08Z</time>
      </trkpt>
      <trkpt lat="17.036930360" lon="-96.383798830">
        <ele>2606.200</ele>
        <time>2020-01-21T17:40:13Z</time>
      </trkpt>
      <trkpt lat="17.036899790" lon="-96.383823560">
        <ele>2606.400</ele>
        <time>2020-01-21T17:40:21Z</time>
      </trkpt>
      <trkpt lat="17.036872610" lon="-96.383853640">
        <ele>2606.400</ele>
        <time>2020-01-21T17:40:25Z</time>
      </trkpt>
      <trkpt lat="17.036839010" lon="-96.383868230">
        <ele>2607.500</ele>
        <time>2020-01-21T17:40:29Z</time>
      </trkpt>
      <trkpt lat="17.036798700" lon="-96.383895850">
        <ele>2606.300</ele>
        <time>2020-01-21T17:40:34Z</time>
      </trkpt>
      <trkpt lat="17.036767520" lon="-96.383919730">
        <ele>2607.500</ele>
        <time>2020-01-21T17:40:43Z</time>
      </trkpt>
      <trkpt lat="17.036730160" lon="-96.383936930">
        <ele>2606.300</ele>
        <time>2020-01-21T17:40:48Z</time>
      </trkpt>
      <trkpt lat="17.036694380" lon="-96.383952520">
        <ele>2607.600</ele>
        <time>2020-01-21T17:41:22Z</time>
      </trkpt>
      <trkpt lat="17.036652040" lon="-96.383957040">
        <ele>2607.900</ele>
        <time>2020-01-21T17:41:28Z</time>
      </trkpt>
      <trkpt lat="17.036613860" lon="-96.383951650">
        <ele>2608.900</ele>
        <time>2020-01-21T17:41:32Z</time>
      </trkpt>
      <trkpt lat="17.036573080" lon="-96.383956310">
        <ele>2608.600</ele>
        <time>2020-01-21T17:41:38Z</time>
      </trkpt>
      <trkpt lat="17.036531080" lon="-96.383967780">
        <ele>2610.200</ele>
        <time>2020-01-21T17:41:47Z</time>
      </trkpt>
      <trkpt lat="17.036495300" lon="-96.383973930">
        <ele>2609.300</ele>
        <time>2020-01-21T17:41:53Z</time>
      </trkpt>
      <trkpt lat="17.036456650" lon="-96.383980090">
        <ele>2610.700</ele>
        <time>2020-01-21T17:42:00Z</time>
      </trkpt>
      <trkpt lat="17.036419660" lon="-96.383983370">
        <ele>2610.100</ele>
        <time>2020-01-21T17:42:13Z</time>
      </trkpt>
      <trkpt lat="17.036382590" lon="-96.383998920">
        <ele>2609.900</ele>
        <time>2020-01-21T17:42:18Z</time>
      </trkpt>
      <trkpt lat="17.036351950" lon="-96.384028680">
        <ele>2608.300</ele>
        <time>2020-01-21T17:42:24Z</time>
      </trkpt>
      <trkpt lat="17.036316290" lon="-96.384054360">
        <ele>2607.900</ele>
        <time>2020-01-21T17:42:29Z</time>
      </trkpt>
      <trkpt lat="17.036283150" lon="-96.384071000">
        <ele>2608.100</ele>
        <time>2020-01-21T17:42:38Z</time>
      </trkpt>
      <trkpt lat="17.036243730" lon="-96.384079230">
        <ele>2608.600</ele>
        <time>2020-01-21T17:42:43Z</time>
      </trkpt>
      <trkpt lat="17.036208570" lon="-96.384105950">
        <ele>2608.600</ele>
        <time>2020-01-21T17:42:48Z</time>
      </trkpt>
      <trkpt lat="17.036186060" lon="-96.384137110">
        <ele>2608.700</ele>
        <time>2020-01-21T17:42:53Z</time>
      </trkpt>
      <trkpt lat="17.036175080" lon="-96.384174490">
        <ele>2608.700</ele>
        <time>2020-01-21T17:42:57Z</time>
      </trkpt>
      <trkpt lat="17.036151580" lon="-96.384213990">
        <ele>2608.700</ele>
        <time>2020-01-21T17:43:02Z</time>
      </trkpt>
      <trkpt lat="17.036120360" lon="-96.384247330">
        <ele>2609.200</ele>
        <time>2020-01-21T17:43:07Z</time>
      </trkpt>
      <trkpt lat="17.036094630" lon="-96.384277540">
        <ele>2609.500</ele>
        <time>2020-01-21T17:43:11Z</time>
      </trkpt>
      <trkpt lat="17.036074800" lon="-96.384316120">
        <ele>2608.900</ele>
        <time>2020-01-21T17:43:16Z</time>
      </trkpt>
      <trkpt lat="17.036048740" lon="-96.384345700">
        <ele>2607.500</ele>
        <time>2020-01-21T17:43:21Z</time>
      </trkpt>
      <trkpt lat="17.036022680" lon="-96.384373810">
        <ele>2607.500</ele>
        <time>2020-01-21T17:43:25Z</time>
      </trkpt>
      <trkpt lat="17.035998660" lon="-96.384406510">
        <ele>2607.600</ele>
        <time>2020-01-21T17:43:30Z</time>
      </trkpt>
      <trkpt lat="17.035979680" lon="-96.384444340">
        <ele>2607.700</ele>
        <time>2020-01-21T17:43:35Z</time>
      </trkpt>
      <trkpt lat="17.035949210" lon="-96.384472440">
        <ele>2607.300</ele>
        <time>2020-01-21T17:43:43Z</time>
      </trkpt>
      <trkpt lat="17.035914750" lon="-96.384498250">
        <ele>2606.400</ele>
        <time>2020-01-21T17:43:48Z</time>
      </trkpt>
      <trkpt lat="17.035878560" lon="-96.384519170">
        <ele>2606.900</ele>
        <time>2020-01-21T17:43:53Z</time>
      </trkpt>
      <trkpt lat="17.035849360" lon="-96.384542980">
        <ele>2606.500</ele>
        <time>2020-01-21T17:43:57Z</time>
      </trkpt>
      <trkpt lat="17.035820020" lon="-96.384572670">
        <ele>2607.700</ele>
        <time>2020-01-21T17:44:02Z</time>
      </trkpt>
      <trkpt lat="17.035782370" lon="-96.384579240">
        <ele>2609.100</ele>
        <time>2020-01-21T17:44:07Z</time>
      </trkpt>
      <trkpt lat="17.035743310" lon="-96.384595610">
        <ele>2610.200</ele>
        <time>2020-01-21T17:44:13Z</time>
      </trkpt>
      <trkpt lat="17.035706220" lon="-96.384605870">
        <ele>2610.600</ele>
        <time>2020-01-21T17:44:21Z</time>
      </trkpt>
      <trkpt lat="17.035676380" lon="-96.384637560">
        <ele>2608.600</ele>
        <time>2020-01-21T17:44:27Z</time>
      </trkpt>
      <trkpt lat="17.035639990" lon="-96.384666780">
        <ele>2609.600</ele>
        <time>2020-01-21T17:44:32Z</time>
      </trkpt>
      <trkpt lat="17.035603630" lon="-96.384681010">
        <ele>2609.900</ele>
        <time>2020-01-21T17:44:36Z</time>
      </trkpt>
      <trkpt lat="17.035567740" lon="-96.384697300">
        <ele>2609.700</ele>
        <time>2020-01-21T17:44:40Z</time>
      </trkpt>
      <trkpt lat="17.035542120" lon="-96.384724470">
        <ele>2610.100</ele>
        <time>2020-01-21T17:44:44Z</time>
      </trkpt>
      <trkpt lat="17.035508210" lon="-96.384739580">
        <ele>2609.300</ele>
        <time>2020-01-21T17:44:48Z</time>
      </trkpt>
      <trkpt lat="17.035465870" lon="-96.384742270">
        <ele>2609.000</ele>
        <time>2020-01-21T17:44:53Z</time>
      </trkpt>
      <trkpt lat="17.035431370" lon="-96.384758260">
        <ele>2609.100</ele>
        <time>2020-01-21T17:44:58Z</time>
      </trkpt>
      <trkpt lat="17.035395540" lon="-96.384775810">
        <ele>2610.000</ele>
        <time>2020-01-21T17:45:03Z</time>
      </trkpt>
      <trkpt lat="17.035354590" lon="-96.384786260">
        <ele>2610.300</ele>
        <time>2020-01-21T17:45:08Z</time>
      </trkpt>
      <trkpt lat="17.035315080" lon="-96.384796140">
        <ele>2611.200</ele>
        <time>2020-01-21T17:45:13Z</time>
      </trkpt>
      <trkpt lat="17.035277650" lon="-96.384792390">
        <ele>2610.200</ele>
        <time>2020-01-21T17:45:18Z</time>
      </trkpt>
      <trkpt lat="17.035239790" lon="-96.384791580">
        <ele>2610.400</ele>
        <time>2020-01-21T17:45:24Z</time>
      </trkpt>
      <trkpt lat="17.035204220" lon="-96.384805050">
        <ele>2610.300</ele>
        <time>2020-01-21T17:45:28Z</time>
      </trkpt>
      <trkpt lat="17.035165610" lon="-96.384816430">
        <ele>2610.800</ele>
        <time>2020-01-21T17:45:51Z</time>
      </trkpt>
      <trkpt lat="17.035127260" lon="-96.384826760">
        <ele>2610.800</ele>
        <time>2020-01-21T17:45:58Z</time>
      </trkpt>
      <trkpt lat="17.035091740" lon="-96.384834390">
        <ele>2610.100</ele>
        <time>2020-01-21T17:46:03Z</time>
      </trkpt>
      <trkpt lat="17.035055650" lon="-96.384847250">
        <ele>2611.300</ele>
        <time>2020-01-21T17:46:13Z</time>
      </trkpt>
      <trkpt lat="17.035021650" lon="-96.384862430">
        <ele>2610.400</ele>
        <time>2020-01-21T17:46:25Z</time>
      </trkpt>
      <trkpt lat="17.034980230" lon="-96.384867240">
        <ele>2609.000</ele>
        <time>2020-01-21T17:46:29Z</time>
      </trkpt>
      <trkpt lat="17.034940480" lon="-96.384881850">
        <ele>2608.200</ele>
        <time>2020-01-21T17:46:34Z</time>
      </trkpt>
      <trkpt lat="17.034901450" lon="-96.384890470">
        <ele>2608.200</ele>
        <time>2020-01-21T17:46:38Z</time>
      </trkpt>
      <trkpt lat="17.034863030" lon="-96.384910130">
        <ele>2608.600</ele>
        <time>2020-01-21T17:46:42Z</time>
      </trkpt>
      <trkpt lat="17.034832770" lon="-96.384933140">
        <ele>2608.200</ele>
        <time>2020-01-21T17:46:46Z</time>
      </trkpt>
      <trkpt lat="17.034795350" lon="-96.384944410">
        <ele>2608.300</ele>
        <time>2020-01-21T17:46:50Z</time>
      </trkpt>
      <trkpt lat="17.034753070" lon="-96.384947900">
        <ele>2608.600</ele>
        <time>2020-01-21T17:46:55Z</time>
      </trkpt>
      <trkpt lat="17.034712750" lon="-96.384961410">
        <ele>2607.900</ele>
        <time>2020-01-21T17:46:59Z</time>
      </trkpt>
      <trkpt lat="17.034678190" lon="-96.384978320">
        <ele>2608.800</ele>
        <time>2020-01-21T17:47:04Z</time>
      </trkpt>
      <trkpt lat="17.034639980" lon="-96.384985830">
        <ele>2607.700</ele>
        <time>2020-01-21T17:48:48Z</time>
      </trkpt>
      <trkpt lat="17.034597540" lon="-96.384979420">
        <ele>2607.200</ele>
        <time>2020-01-21T17:48:53Z</time>
      </trkpt>
      <trkpt lat="17.034564200" lon="-96.385001850">
        <ele>2606.100</ele>
        <time>2020-01-21T17:48:57Z</time>
      </trkpt>
      <trkpt lat="17.034519760" lon="-96.384997720">
        <ele>2607.300</ele>
        <time>2020-01-21T17:49:02Z</time>
      </trkpt>
      <trkpt lat="17.034475910" lon="-96.384991060">
        <ele>2608.200</ele>
        <time>2020-01-21T17:49:07Z</time>
      </trkpt>
      <trkpt lat="17.034434710" lon="-96.384995990">
        <ele>2609.200</ele>
        <time>2020-01-21T17:49:13Z</time>
      </trkpt>
      <trkpt lat="17.034395470" lon="-96.385006080">
        <ele>2609.300</ele>
        <time>2020-01-21T17:49:19Z</time>
      </trkpt>
      <trkpt lat="17.034354910" lon="-96.384995480">
        <ele>2609.200</ele>
        <time>2020-01-21T17:49:24Z</time>
      </trkpt>
      <trkpt lat="17.034316740" lon="-96.384995360">
        <ele>2609.700</ele>
        <time>2020-01-21T17:49:29Z</time>
      </trkpt>
      <trkpt lat="17.034276940" lon="-96.384995630">
        <ele>2609.800</ele>
        <time>2020-01-21T17:49:34Z</time>
      </trkpt>
      <trkpt lat="17.034245840" lon="-96.385015400">
        <ele>2609.700</ele>
        <time>2020-01-21T17:49:38Z</time>
      </trkpt>
      <trkpt lat="17.034210410" lon="-96.385023440">
        <ele>2610.100</ele>
        <time>2020-01-21T17:49:45Z</time>
      </trkpt>
      <trkpt lat="17.034172640" lon="-96.385024840">
        <ele>2611.000</ele>
        <time>2020-01-21T17:50:48Z</time>
      </trkpt>
      <trkpt lat="17.034134270" lon="-96.385039880">
        <ele>2610.100</ele>
        <time>2020-01-21T17:51:32Z</time>
      </trkpt>
      <trkpt lat="17.034094910" lon="-96.385043510">
        <ele>2610.200</ele>
        <time>2020-01-21T17:51:36Z</time>
      </trkpt>
      <trkpt lat="17.034053090" lon="-96.385062540">
        <ele>2610.000</ele>
        <time>2020-01-21T17:51:40Z</time>
      </trkpt>
      <trkpt lat="17.034012420" lon="-96.385065260">
        <ele>2609.000</ele>
        <time>2020-01-21T17:51:47Z</time>
      </trkpt>
      <trkpt lat="17.033974170" lon="-96.385073790">
        <ele>2608.700</ele>
        <time>2020-01-21T17:51:52Z</time>
      </trkpt>
      <trkpt lat="17.033934280" lon="-96.385078140">
        <ele>2608.300</ele>
        <time>2020-01-21T17:52:25Z</time>
      </trkpt>
      <trkpt lat="17.033894850" lon="-96.385075130">
        <ele>2609.100</ele>
        <time>2020-01-21T17:52:31Z</time>
      </trkpt>
      <trkpt lat="17.033858720" lon="-96.385072740">
        <ele>2609.100</ele>
        <time>2020-01-21T17:52:52Z</time>
      </trkpt>
      <trkpt lat="17.033822510" lon="-96.385067090">
        <ele>2609.300</ele>
        <time>2020-01-21T17:52:57Z</time>
      </trkpt>
      <trkpt lat="17.033787440" lon="-96.385057790">
        <ele>2608.900</ele>
        <time>2020-01-21T17:53:02Z</time>
      </trkpt>
      <trkpt lat="17.033752170" lon="-96.385043380">
        <ele>2607.300</ele>
        <time>2020-01-21T17:53:08Z</time>
      </trkpt>
      <trkpt lat="17.033710020" lon="-96.385044050">
        <ele>2606.300</ele>
        <time>2020-01-21T17:53:51Z</time>
      </trkpt>
      <trkpt lat="17.033672630" lon="-96.385031380">
        <ele>2607.300</ele>
        <time>2020-01-21T17:53:55Z</time>
      </trkpt>
      <trkpt lat="17.033629330" lon="-96.385016960">
        <ele>2607.800</ele>
        <time>2020-01-21T17:53:59Z</time>
      </trkpt>
      <trkpt lat="17.033587030" lon="-96.385009590">
        <ele>2606.100</ele>
        <time>2020-01-21T17:54:03Z</time>
      </trkpt>
      <trkpt lat="17.033546860" lon="-96.385000660">
        <ele>2605.600</ele>
        <time>2020-01-21T17:54:07Z</time>
      </trkpt>
      <trkpt lat="17.033508920" lon="-96.385003260">
        <ele>2605.900</ele>
        <time>2020-01-21T17:54:11Z</time>
      </trkpt>
      <trkpt lat="17.033472640" lon="-96.385008290">
        <ele>2605.900</ele>
        <time>2020-01-21T17:54:15Z</time>
      </trkpt>
      <trkpt lat="17.033435430" lon="-96.385010480">
        <ele>2604.500</ele>
        <time>2020-01-21T17:54:19Z</time>
      </trkpt>
      <trkpt lat="17.033398140" lon="-96.385007160">
        <ele>2604.300</ele>
        <time>2020-01-21T17:54:23Z</time>
      </trkpt>
      <trkpt lat="17.033354030" lon="-96.384999890">
        <ele>2604.400</ele>
        <time>2020-01-21T17:54:27Z</time>
      </trkpt>
      <trkpt lat="17.033309390" lon="-96.384995030">
        <ele>2604.900</ele>
        <time>2020-01-21T17:54:31Z</time>
      </trkpt>
      <trkpt lat="17.033267940" lon="-96.384985010">
        <ele>2604.500</ele>
        <time>2020-01-21T17:54:35Z</time>
      </trkpt>
      <trkpt lat="17.033232940" lon="-96.385005630">
        <ele>2604.900</ele>
        <time>2020-01-21T17:54:39Z</time>
      </trkpt>
      <trkpt lat="17.033196170" lon="-96.385025170">
        <ele>2606.300</ele>
        <time>2020-01-21T17:54:44Z</time>
      </trkpt>
      <trkpt lat="17.033157760" lon="-96.385033270">
        <ele>2605.200</ele>
        <time>2020-01-21T17:54:56Z</time>
      </trkpt>
      <trkpt lat="17.033121830" lon="-96.385053220">
        <ele>2605.200</ele>
        <time>2020-01-21T17:55:02Z</time>
      </trkpt>
      <trkpt lat="17.033081960" lon="-96.385072730">
        <ele>2604.100</ele>
        <time>2020-01-21T17:55:07Z</time>
      </trkpt>
      <trkpt lat="17.033047540" lon="-96.385095320">
        <ele>2603.400</ele>
        <time>2020-01-21T17:55:12Z</time>
      </trkpt>
      <trkpt lat="17.033007540" lon="-96.385108300">
        <ele>2603.600</ele>
        <time>2020-01-21T17:55:18Z</time>
      </trkpt>
      <trkpt lat="17.032970010" lon="-96.385109630">
        <ele>2603.700</ele>
        <time>2020-01-21T17:55:22Z</time>
      </trkpt>
      <trkpt lat="17.032931330" lon="-96.385128480">
        <ele>2603.200</ele>
        <time>2020-01-21T17:55:27Z</time>
      </trkpt>
      <trkpt lat="17.032902690" lon="-96.385157500">
        <ele>2602.800</ele>
        <time>2020-01-21T17:55:34Z</time>
      </trkpt>
      <trkpt lat="17.032875700" lon="-96.385191690">
        <ele>2602.800</ele>
        <time>2020-01-21T17:55:43Z</time>
      </trkpt>
      <trkpt lat="17.032859620" lon="-96.385225980">
        <ele>2601.300</ele>
        <time>2020-01-21T17:55:50Z</time>
      </trkpt>
      <trkpt lat="17.032827070" lon="-96.385250650">
        <ele>2599.600</ele>
        <time>2020-01-21T17:56:02Z</time>
      </trkpt>
      <trkpt lat="17.032787980" lon="-96.385258880">
        <ele>2598.500</ele>
        <time>2020-01-21T17:56:07Z</time>
      </trkpt>
      <trkpt lat="17.032744560" lon="-96.385257810">
        <ele>2569.800</ele>
        <time>2020-01-21T17:56:13Z</time>
      </trkpt>
      <trkpt lat="17.032702980" lon="-96.385254780">
        <ele>2588.300</ele>
        <time>2020-01-21T17:56:18Z</time>
      </trkpt>
      <trkpt lat="17.032662920" lon="-96.385243880">
        <ele>2592.800</ele>
        <time>2020-01-21T17:56:23Z</time>
      </trkpt>
      <trkpt lat="17.032621380" lon="-96.385233060">
        <ele>2594.700</ele>
        <time>2020-01-21T17:56:28Z</time>
      </trkpt>
      <trkpt lat="17.032587080" lon="-96.385220540">
        <ele>2596.100</ele>
        <time>2020-01-21T17:56:34Z</time>
      </trkpt>
      <trkpt lat="17.032560380" lon="-96.385186500">
        <ele>2596.600</ele>
        <time>2020-01-21T17:56:40Z</time>
      </trkpt>
      <trkpt lat="17.032526260" lon="-96.385170100">
        <ele>2596.600</ele>
        <time>2020-01-21T17:56:44Z</time>
      </trkpt>
      <trkpt lat="17.032495190" lon="-96.385141910">
        <ele>2596.500</ele>
        <time>2020-01-21T17:56:49Z</time>
      </trkpt>
      <trkpt lat="17.032460310" lon="-96.385120310">
        <ele>2597.000</ele>
        <time>2020-01-21T17:56:54Z</time>
      </trkpt>
      <trkpt lat="17.032424710" lon="-96.385098070">
        <ele>2596.700</ele>
        <time>2020-01-21T17:56:59Z</time>
      </trkpt>
      <trkpt lat="17.032390900" lon="-96.385082340">
        <ele>2596.600</ele>
        <time>2020-01-21T17:57:04Z</time>
      </trkpt>
      <trkpt lat="17.032353510" lon="-96.385069970">
        <ele>2596.300</ele>
        <time>2020-01-21T17:57:09Z</time>
      </trkpt>
      <trkpt lat="17.032314760" lon="-96.385062460">
        <ele>2596.000</ele>
        <time>2020-01-21T17:57:14Z</time>
      </trkpt>
      <trkpt lat="17.032272410" lon="-96.385056420">
        <ele>2595.200</ele>
        <time>2020-01-21T17:57:19Z</time>
      </trkpt>
      <trkpt lat="17.032234370" lon="-96.385052330">
        <ele>2595.100</ele>
        <time>2020-01-21T17:57:23Z</time>
      </trkpt>
      <trkpt lat="17.032192010" lon="-96.385057130">
        <ele>2593.900</ele>
        <time>2020-01-21T17:57:28Z</time>
      </trkpt>
      <trkpt lat="17.032159650" lon="-96.385083860">
        <ele>2592.800</ele>
        <time>2020-01-21T17:57:34Z</time>
      </trkpt>
      <trkpt lat="17.032120960" lon="-96.385089380">
        <ele>2593.100</ele>
        <time>2020-01-21T17:57:47Z</time>
      </trkpt>
      <trkpt lat="17.032079250" lon="-96.385088680">
        <ele>2593.600</ele>
        <time>2020-01-21T17:57:52Z</time>
      </trkpt>
      <trkpt lat="17.032048530" lon="-96.385064560">
        <ele>2593.900</ele>
        <time>2020-01-21T17:57:56Z</time>
      </trkpt>
      <trkpt lat="17.032017640" lon="-96.385036250">
        <ele>2594.500</ele>
        <time>2020-01-21T17:58:00Z</time>
      </trkpt>
      <trkpt lat="17.031981630" lon="-96.385030540">
        <ele>2593.800</ele>
        <time>2020-01-21T17:58:04Z</time>
      </trkpt>
      <trkpt lat="17.031941690" lon="-96.385038810">
        <ele>2593.500</ele>
        <time>2020-01-21T17:58:09Z</time>
      </trkpt>
      <trkpt lat="17.031901180" lon="-96.385026420">
        <ele>2592.100</ele>
        <time>2020-01-21T17:58:15Z</time>
      </trkpt>
      <trkpt lat="17.031862490" lon="-96.385014380">
        <ele>2593.000</ele>
        <time>2020-01-21T17:58:20Z</time>
      </trkpt>
      <trkpt lat="17.031831630" lon="-96.384991780">
        <ele>2592.900</ele>
        <time>2020-01-21T17:58:25Z</time>
      </trkpt>
      <trkpt lat="17.031793170" lon="-96.384986550">
        <ele>2593.600</ele>
        <time>2020-01-21T17:58:32Z</time>
      </trkpt>
      <trkpt lat="17.031756510" lon="-96.384978900">
        <ele>2594.200</ele>
        <time>2020-01-21T17:58:37Z</time>
      </trkpt>
      <trkpt lat="17.031727580" lon="-96.384951110">
        <ele>2593.800</ele>
        <time>2020-01-21T17:58:43Z</time>
      </trkpt>
      <trkpt lat="17.031701020" lon="-96.384916460">
        <ele>2592.700</ele>
        <time>2020-01-21T17:58:48Z</time>
      </trkpt>
      <trkpt lat="17.031676230" lon="-96.384887680">
        <ele>2592.000</ele>
        <time>2020-01-21T17:58:53Z</time>
      </trkpt>
      <trkpt lat="17.031641850" lon="-96.384867960">
        <ele>2591.600</ele>
        <time>2020-01-21T17:58:59Z</time>
      </trkpt>
      <trkpt lat="17.031603790" lon="-96.384848220">
        <ele>2591.200</ele>
        <time>2020-01-21T17:59:06Z</time>
      </trkpt>
      <trkpt lat="17.031572860" lon="-96.384815210">
        <ele>2591.600</ele>
        <time>2020-01-21T17:59:11Z</time>
      </trkpt>
      <trkpt lat="17.031545180" lon="-96.384786430">
        <ele>2592.900</ele>
        <time>2020-01-21T17:59:16Z</time>
      </trkpt>
      <trkpt lat="17.031503510" lon="-96.384776890">
        <ele>2592.000</ele>
        <time>2020-01-21T17:59:21Z</time>
      </trkpt>
      <trkpt lat="17.031468360" lon="-96.384766160">
        <ele>2591.200</ele>
        <time>2020-01-21T17:59:27Z</time>
      </trkpt>
      <trkpt lat="17.031435940" lon="-96.384742920">
        <ele>2590.100</ele>
        <time>2020-01-21T17:59:41Z</time>
      </trkpt>
      <trkpt lat="17.031425970" lon="-96.384703490">
        <ele>2602.600</ele>
        <time>2020-01-21T17:59:46Z</time>
      </trkpt>
      <trkpt lat="17.031403030" lon="-96.384668750">
        <ele>2591.900</ele>
        <time>2020-01-21T17:59:51Z</time>
      </trkpt>
      <trkpt lat="17.031389740" lon="-96.384628490">
        <ele>2589.700</ele>
        <time>2020-01-21T18:00:10Z</time>
      </trkpt>
      <trkpt lat="17.031360100" lon="-96.384603770">
        <ele>2589.300</ele>
        <time>2020-01-21T18:00:15Z</time>
      </trkpt>
      <trkpt lat="17.031339720" lon="-96.384571210">
        <ele>2589.000</ele>
        <time>2020-01-21T18:00:20Z</time>
      </trkpt>
      <trkpt lat="17.031311380" lon="-96.384542380">
        <ele>2588.100</ele>
        <time>2020-01-21T18:00:26Z</time>
      </trkpt>
      <trkpt lat="17.031284180" lon="-96.384509430">
        <ele>2587.700</ele>
        <time>2020-01-21T18:00:33Z</time>
      </trkpt>
      <trkpt lat="17.031263740" lon="-96.384474490">
        <ele>2587.600</ele>
        <time>2020-01-21T18:00:39Z</time>
      </trkpt>
      <trkpt lat="17.031223830" lon="-96.384466810">
        <ele>2587.400</ele>
        <time>2020-01-21T18:00:45Z</time>
      </trkpt>
      <trkpt lat="17.031231580" lon="-96.384429530">
        <ele>2585.300</ele>
        <time>2020-01-21T18:03:49Z</time>
      </trkpt>
      <trkpt lat="17.031231790" lon="-96.384471160">
        <ele>2586.700</ele>
        <time>2020-01-21T18:05:09Z</time>
      </trkpt>
      <trkpt lat="17.031267000" lon="-96.384482360">
        <ele>2587.300</ele>
        <time>2020-01-21T18:06:05Z</time>
      </trkpt>
      <trkpt lat="17.031302520" lon="-96.384466730">
        <ele>2588.200</ele>
        <time>2020-01-21T18:06:12Z</time>
      </trkpt>
      <trkpt lat="17.031336650" lon="-96.384441150">
        <ele>2589.800</ele>
        <time>2020-01-21T18:06:19Z</time>
      </trkpt>
      <trkpt lat="17.031364320" lon="-96.384416940">
        <ele>2590.200</ele>
        <time>2020-01-21T18:06:23Z</time>
      </trkpt>
      <trkpt lat="17.031380170" lon="-96.384376270">
        <ele>2589.900</ele>
        <time>2020-01-21T18:06:28Z</time>
      </trkpt>
      <trkpt lat="17.031398660" lon="-96.384338460">
        <ele>2589.900</ele>
        <time>2020-01-21T18:06:33Z</time>
      </trkpt>
      <trkpt lat="17.031425420" lon="-96.384305860">
        <ele>2479.600</ele>
        <time>2020-01-21T18:06:38Z</time>
      </trkpt>
      <trkpt lat="17.031450130" lon="-96.384271100">
        <ele>2589.300</ele>
        <time>2020-01-21T18:06:44Z</time>
      </trkpt>
      <trkpt lat="17.031474600" lon="-96.384242480">
        <ele>2589.400</ele>
        <time>2020-01-21T18:06:49Z</time>
      </trkpt>
      <trkpt lat="17.031495680" lon="-96.384207010">
        <ele>2589.800</ele>
        <time>2020-01-21T18:06:54Z</time>
      </trkpt>
      <trkpt lat="17.031523920" lon="-96.384170720">
        <ele>2589.700</ele>
        <time>2020-01-21T18:06:59Z</time>
      </trkpt>
      <trkpt lat="17.031556360" lon="-96.384143930">
        <ele>2589.800</ele>
        <time>2020-01-21T18:07:05Z</time>
      </trkpt>
      <trkpt lat="17.031596740" lon="-96.384133300">
        <ele>2590.200</ele>
        <time>2020-01-21T18:07:11Z</time>
      </trkpt>
      <trkpt lat="17.031607300" lon="-96.384092060">
        <ele>2591.500</ele>
        <time>2020-01-21T18:07:59Z</time>
      </trkpt>
      <trkpt lat="17.031616830" lon="-96.384047760">
        <ele>2591.700</ele>
        <time>2020-01-21T18:08:45Z</time>
      </trkpt>
      <trkpt lat="17.031639540" lon="-96.384011820">
        <ele>2591.700</ele>
        <time>2020-01-21T18:08:50Z</time>
      </trkpt>
      <trkpt lat="17.031657850" lon="-96.383979020">
        <ele>2590.600</ele>
        <time>2020-01-21T18:09:00Z</time>
      </trkpt>
      <trkpt lat="17.031688710" lon="-96.383949080">
        <ele>2590.700</ele>
        <time>2020-01-21T18:09:12Z</time>
      </trkpt>
      <trkpt lat="17.031716040" lon="-96.383918990">
        <ele>2591.100</ele>
        <time>2020-01-21T18:09:18Z</time>
      </trkpt>
      <trkpt lat="17.031743410" lon="-96.383889010">
        <ele>2591.500</ele>
        <time>2020-01-21T18:09:23Z</time>
      </trkpt>
      <trkpt lat="17.031778890" lon="-96.383877200">
        <ele>2592.300</ele>
        <time>2020-01-21T18:09:28Z</time>
      </trkpt>
      <trkpt lat="17.031815460" lon="-96.383863710">
        <ele>2592.600</ele>
        <time>2020-01-21T18:09:33Z</time>
      </trkpt>
      <trkpt lat="17.031856470" lon="-96.383853440">
        <ele>2592.700</ele>
        <time>2020-01-21T18:09:38Z</time>
      </trkpt>
      <trkpt lat="17.031890850" lon="-96.383830700">
        <ele>2593.800</ele>
        <time>2020-01-21T18:10:05Z</time>
      </trkpt>
      <trkpt lat="17.031926920" lon="-96.383826810">
        <ele>2593.500</ele>
        <time>2020-01-21T18:10:20Z</time>
      </trkpt>
      <trkpt lat="17.031955630" lon="-96.383802480">
        <ele>2594.100</ele>
        <time>2020-01-21T18:10:25Z</time>
      </trkpt>
      <trkpt lat="17.031991130" lon="-96.383776990">
        <ele>2514.200</ele>
        <time>2020-01-21T18:10:30Z</time>
      </trkpt>
      <trkpt lat="17.032021580" lon="-96.383753870">
        <ele>2581.000</ele>
        <time>2020-01-21T18:10:36Z</time>
      </trkpt>
      <trkpt lat="17.032053210" lon="-96.383730820">
        <ele>2589.700</ele>
        <time>2020-01-21T18:10:41Z</time>
      </trkpt>
      <trkpt lat="17.032088410" lon="-96.383717990">
        <ele>2592.800</ele>
        <time>2020-01-21T18:10:46Z</time>
      </trkpt>
      <trkpt lat="17.032127090" lon="-96.383701540">
        <ele>2595.000</ele>
        <time>2020-01-21T18:10:51Z</time>
      </trkpt>
      <trkpt lat="17.032163060" lon="-96.383677710">
        <ele>2595.900</ele>
        <time>2020-01-21T18:10:56Z</time>
      </trkpt>
      <trkpt lat="17.032184070" lon="-96.383646090">
        <ele>2596.300</ele>
        <time>2020-01-21T18:11:00Z</time>
      </trkpt>
      <trkpt lat="17.032199250" lon="-96.383606650">
        <ele>2596.600</ele>
        <time>2020-01-21T18:11:05Z</time>
      </trkpt>
      <trkpt lat="17.032232130" lon="-96.383579450">
        <ele>2597.100</ele>
        <time>2020-01-21T18:11:12Z</time>
      </trkpt>
      <trkpt lat="17.032265710" lon="-96.383558570">
        <ele>2419.900</ele>
        <time>2020-01-21T18:11:18Z</time>
      </trkpt>
      <trkpt lat="17.032305780" lon="-96.383550000">
        <ele>2594.000</ele>
        <time>2020-01-21T18:11:40Z</time>
      </trkpt>
      <trkpt lat="17.032339590" lon="-96.383572780">
        <ele>2595.500</ele>
        <time>2020-01-21T18:11:48Z</time>
      </trkpt>
      <trkpt lat="17.032369300" lon="-96.383595200">
        <ele>2596.300</ele>
        <time>2020-01-21T18:12:06Z</time>
      </trkpt>
      <trkpt lat="17.032396300" lon="-96.383620420">
        <ele>2595.900</ele>
        <time>2020-01-21T18:12:17Z</time>
      </trkpt>
      <trkpt lat="17.032430460" lon="-96.383632920">
        <ele>2594.700</ele>
        <time>2020-01-21T18:12:22Z</time>
      </trkpt>
      <trkpt lat="17.032463500" lon="-96.383657980">
        <ele>2594.200</ele>
        <time>2020-01-21T18:12:28Z</time>
      </trkpt>
      <trkpt lat="17.032490050" lon="-96.383684140">
        <ele>2592.500</ele>
        <time>2020-01-21T18:12:38Z</time>
      </trkpt>
      <trkpt lat="17.032522360" lon="-96.383706180">
        <ele>2593.000</ele>
        <time>2020-01-21T18:12:45Z</time>
      </trkpt>
      <trkpt lat="17.032558350" lon="-96.383726480">
        <ele>2591.400</ele>
        <time>2020-01-21T18:12:53Z</time>
      </trkpt>
      <trkpt lat="17.032587370" lon="-96.383749180">
        <ele>2580.900</ele>
        <time>2020-01-21T18:13:04Z</time>
      </trkpt>
      <trkpt lat="17.032608200" lon="-96.383781480">
        <ele>2589.700</ele>
        <time>2020-01-21T18:13:08Z</time>
      </trkpt>
      <trkpt lat="17.032645680" lon="-96.383803560">
        <ele>2590.200</ele>
        <time>2020-01-21T18:13:13Z</time>
      </trkpt>
      <trkpt lat="17.032682190" lon="-96.383820680">
        <ele>2588.200</ele>
        <time>2020-01-21T18:13:19Z</time>
      </trkpt>
      <trkpt lat="17.032703420" lon="-96.383856430">
        <ele>2587.200</ele>
        <time>2020-01-21T18:13:27Z</time>
      </trkpt>
      <trkpt lat="17.032749090" lon="-96.383872400">
        <ele>2588.800</ele>
        <time>2020-01-21T18:13:39Z</time>
      </trkpt>
      <trkpt lat="17.032781000" lon="-96.383894020">
        <ele>2588.600</ele>
        <time>2020-01-21T18:13:46Z</time>
      </trkpt>
      <trkpt lat="17.032802700" lon="-96.383931580">
        <ele>2588.000</ele>
        <time>2020-01-21T18:13:50Z</time>
      </trkpt>
      <trkpt lat="17.032829030" lon="-96.383965450">
        <ele>2589.000</ele>
        <time>2020-01-21T18:13:56Z</time>
      </trkpt>
      <trkpt lat="17.032866360" lon="-96.383986910">
        <ele>2588.100</ele>
        <time>2020-01-21T18:14:02Z</time>
      </trkpt>
      <trkpt lat="17.032899940" lon="-96.384010330">
        <ele>2588.000</ele>
        <time>2020-01-21T18:14:06Z</time>
      </trkpt>
      <trkpt lat="17.032942800" lon="-96.384020790">
        <ele>2589.000</ele>
        <time>2020-01-21T18:14:12Z</time>
      </trkpt>
      <trkpt lat="17.032979640" lon="-96.384025640">
        <ele>2588.700</ele>
        <time>2020-01-21T18:14:17Z</time>
      </trkpt>
      <trkpt lat="17.033021680" lon="-96.384030210">
        <ele>2587.200</ele>
        <time>2020-01-21T18:14:22Z</time>
      </trkpt>
      <trkpt lat="17.033062070" lon="-96.384027640">
        <ele>2587.300</ele>
        <time>2020-01-21T18:14:28Z</time>
      </trkpt>
      <trkpt lat="17.033099690" lon="-96.384026020">
        <ele>2586.600</ele>
        <time>2020-01-21T18:14:32Z</time>
      </trkpt>
      <trkpt lat="17.033135790" lon="-96.384030960">
        <ele>2585.400</ele>
        <time>2020-01-21T18:14:41Z</time>
      </trkpt>
      <trkpt lat="17.033172330" lon="-96.384031930">
        <ele>2585.000</ele>
        <time>2020-01-21T18:14:52Z</time>
      </trkpt>
      <trkpt lat="17.033211560" lon="-96.384031280">
        <ele>2584.000</ele>
        <time>2020-01-21T18:14:57Z</time>
      </trkpt>
      <trkpt lat="17.033253280" lon="-96.384034470">
        <ele>2583.800</ele>
        <time>2020-01-21T18:15:40Z</time>
      </trkpt>
      <trkpt lat="17.033291650" lon="-96.384048280">
        <ele>2583.200</ele>
        <time>2020-01-21T18:15:45Z</time>
      </trkpt>
      <trkpt lat="17.033324050" lon="-96.384067070">
        <ele>2584.100</ele>
        <time>2020-01-21T18:16:17Z</time>
      </trkpt>
      <trkpt lat="17.033360650" lon="-96.384080900">
        <ele>2584.400</ele>
        <time>2020-01-21T18:16:27Z</time>
      </trkpt>
      <trkpt lat="17.033398930" lon="-96.384094080">
        <ele>2584.000</ele>
        <time>2020-01-21T18:16:34Z</time>
      </trkpt>
      <trkpt lat="17.033438160" lon="-96.384091900">
        <ele>2584.400</ele>
        <time>2020-01-21T18:16:41Z</time>
      </trkpt>
      <trkpt lat="17.033476370" lon="-96.384081950">
        <ele>2585.200</ele>
        <time>2020-01-21T18:16:46Z</time>
      </trkpt>
      <trkpt lat="17.033514750" lon="-96.384089130">
        <ele>2584.100</ele>
        <time>2020-01-21T18:16:52Z</time>
      </trkpt>
      <trkpt lat="17.033554480" lon="-96.384103020">
        <ele>2583.300</ele>
        <time>2020-01-21T18:16:58Z</time>
      </trkpt>
      <trkpt lat="17.033593950" lon="-96.384107690">
        <ele>2583.700</ele>
        <time>2020-01-21T18:17:04Z</time>
      </trkpt>
      <trkpt lat="17.033629730" lon="-96.384114160">
        <ele>2585.000</ele>
        <time>2020-01-21T18:17:12Z</time>
      </trkpt>
      <trkpt lat="17.033668930" lon="-96.384107850">
        <ele>2584.300</ele>
        <time>2020-01-21T18:17:28Z</time>
      </trkpt>
      <trkpt lat="17.033706730" lon="-96.384096730">
        <ele>2584.500</ele>
        <time>2020-01-21T18:17:33Z</time>
      </trkpt>
      <trkpt lat="17.033742660" lon="-96.384105280">
        <ele>2583.700</ele>
        <time>2020-01-21T18:17:37Z</time>
      </trkpt>
      <trkpt lat="17.033785600" lon="-96.384110710">
        <ele>2583.400</ele>
        <time>2020-01-21T18:17:42Z</time>
      </trkpt>
      <trkpt lat="17.033822490" lon="-96.384119360">
        <ele>2583.200</ele>
        <time>2020-01-21T18:17:48Z</time>
      </trkpt>
      <trkpt lat="17.033860190" lon="-96.384138990">
        <ele>2582.900</ele>
        <time>2020-01-21T18:17:55Z</time>
      </trkpt>
      <trkpt lat="17.033900660" lon="-96.384151710">
        <ele>2583.800</ele>
        <time>2020-01-21T18:18:01Z</time>
      </trkpt>
      <trkpt lat="17.033937200" lon="-96.384142280">
        <ele>2583.400</ele>
        <time>2020-01-21T18:18:07Z</time>
      </trkpt>
      <trkpt lat="17.033976530" lon="-96.384150840">
        <ele>2582.700</ele>
        <time>2020-01-21T18:18:14Z</time>
      </trkpt>
      <trkpt lat="17.034011290" lon="-96.384139080">
        <ele>2581.100</ele>
        <time>2020-01-21T18:18:30Z</time>
      </trkpt>
      <trkpt lat="17.034055510" lon="-96.384136930">
        <ele>2580.400</ele>
        <time>2020-01-21T18:18:35Z</time>
      </trkpt>
      <trkpt lat="17.034093790" lon="-96.384132520">
        <ele>2580.100</ele>
        <time>2020-01-21T18:18:39Z</time>
      </trkpt>
      <trkpt lat="17.034136320" lon="-96.384134120">
        <ele>2579.800</ele>
        <time>2020-01-21T18:18:44Z</time>
      </trkpt>
      <trkpt lat="17.034173240" lon="-96.384144310">
        <ele>2580.400</ele>
        <time>2020-01-21T18:18:49Z</time>
      </trkpt>
      <trkpt lat="17.034209240" lon="-96.384151260">
        <ele>2580.000</ele>
        <time>2020-01-21T18:18:53Z</time>
      </trkpt>
      <trkpt lat="17.034248650" lon="-96.384145980">
        <ele>2581.200</ele>
        <time>2020-01-21T18:18:59Z</time>
      </trkpt>
      <trkpt lat="17.034285600" lon="-96.384129470">
        <ele>2581.700</ele>
        <time>2020-01-21T18:19:06Z</time>
      </trkpt>
      <trkpt lat="17.034320390" lon="-96.384105490">
        <ele>2582.000</ele>
        <time>2020-01-21T18:19:11Z</time>
      </trkpt>
      <trkpt lat="17.034357950" lon="-96.384083720">
        <ele>2581.900</ele>
        <time>2020-01-21T18:19:17Z</time>
      </trkpt>
      <trkpt lat="17.034393170" lon="-96.384064380">
        <ele>2580.300</ele>
        <time>2020-01-21T18:19:23Z</time>
      </trkpt>
      <trkpt lat="17.034429560" lon="-96.384052440">
        <ele>2578.900</ele>
        <time>2020-01-21T18:19:29Z</time>
      </trkpt>
      <trkpt lat="17.034468030" lon="-96.384040800">
        <ele>2578.200</ele>
        <time>2020-01-21T18:19:35Z</time>
      </trkpt>
      <trkpt lat="17.034508340" lon="-96.384023590">
        <ele>2578.200</ele>
        <time>2020-01-21T18:19:41Z</time>
      </trkpt>
      <trkpt lat="17.034540480" lon="-96.383998320">
        <ele>2578.600</ele>
        <time>2020-01-21T18:19:46Z</time>
      </trkpt>
      <trkpt lat="17.034577420" lon="-96.383986560">
        <ele>2578.500</ele>
        <time>2020-01-21T18:19:51Z</time>
      </trkpt>
      <trkpt lat="17.034610990" lon="-96.383963330">
        <ele>2577.300</ele>
        <time>2020-01-21T18:19:56Z</time>
      </trkpt>
      <trkpt lat="17.034649120" lon="-96.383946250">
        <ele>2576.200</ele>
        <time>2020-01-21T18:20:01Z</time>
      </trkpt>
      <trkpt lat="17.034677750" lon="-96.383923210">
        <ele>2575.900</ele>
        <time>2020-01-21T18:20:06Z</time>
      </trkpt>
      <trkpt lat="17.034706190" lon="-96.383890520">
        <ele>2574.700</ele>
        <time>2020-01-21T18:20:11Z</time>
      </trkpt>
      <trkpt lat="17.034740320" lon="-96.383863320">
        <ele>2575.600</ele>
        <time>2020-01-21T18:20:16Z</time>
      </trkpt>
      <trkpt lat="17.034771060" lon="-96.383838970">
        <ele>2575.800</ele>
        <time>2020-01-21T18:20:20Z</time>
      </trkpt>
      <trkpt lat="17.034804690" lon="-96.383815760">
        <ele>2576.300</ele>
        <time>2020-01-21T18:20:25Z</time>
      </trkpt>
      <trkpt lat="17.034834680" lon="-96.383785070">
        <ele>2575.900</ele>
        <time>2020-01-21T18:20:31Z</time>
      </trkpt>
      <trkpt lat="17.034873720" lon="-96.383773510">
        <ele>2574.500</ele>
        <time>2020-01-21T18:20:56Z</time>
      </trkpt>
      <trkpt lat="17.034887220" lon="-96.383736570">
        <ele>2573.500</ele>
        <time>2020-01-21T18:21:01Z</time>
      </trkpt>
      <trkpt lat="17.034923280" lon="-96.383714380">
        <ele>2573.600</ele>
        <time>2020-01-21T18:21:06Z</time>
      </trkpt>
      <trkpt lat="17.034963910" lon="-96.383698900">
        <ele>2573.100</ele>
        <time>2020-01-21T18:21:16Z</time>
      </trkpt>
      <trkpt lat="17.034995190" lon="-96.383678050">
        <ele>2574.000</ele>
        <time>2020-01-21T18:21:22Z</time>
      </trkpt>
      <trkpt lat="17.035015530" lon="-96.383644710">
        <ele>2573.700</ele>
        <time>2020-01-21T18:21:39Z</time>
      </trkpt>
      <trkpt lat="17.035026530" lon="-96.383603400">
        <ele>2572.100</ele>
        <time>2020-01-21T18:21:51Z</time>
      </trkpt>
      <trkpt lat="17.035024520" lon="-96.383563760">
        <ele>2570.400</ele>
        <time>2020-01-21T18:21:56Z</time>
      </trkpt>
      <trkpt lat="17.035023060" lon="-96.383520940">
        <ele>2570.700</ele>
        <time>2020-01-21T18:22:01Z</time>
      </trkpt>
      <trkpt lat="17.035001920" lon="-96.383486790">
        <ele>2571.100</ele>
        <time>2020-01-21T18:22:31Z</time>
      </trkpt>
      <trkpt lat="17.034962150" lon="-96.383473190">
        <ele>2572.400</ele>
        <time>2020-01-21T18:22:41Z</time>
      </trkpt>
      <trkpt lat="17.034951460" lon="-96.383437140">
        <ele>2574.500</ele>
        <time>2020-01-21T18:22:50Z</time>
      </trkpt>
      <trkpt lat="17.034979590" lon="-96.383404650">
        <ele>2574.500</ele>
        <time>2020-01-21T18:23:33Z</time>
      </trkpt>
      <trkpt lat="17.034977250" lon="-96.383360970">
        <ele>2575.400</ele>
        <time>2020-01-21T18:23:41Z</time>
      </trkpt>
      <trkpt lat="17.034970080" lon="-96.383322060">
        <ele>2576.300</ele>
        <time>2020-01-21T18:23:46Z</time>
      </trkpt>
      <trkpt lat="17.034944910" lon="-96.383290040">
        <ele>2577.700</ele>
        <time>2020-01-21T18:24:02Z</time>
      </trkpt>
      <trkpt lat="17.034920150" lon="-96.383258840">
        <ele>2579.000</ele>
        <time>2020-01-21T18:24:07Z</time>
      </trkpt>
      <trkpt lat="17.034880850" lon="-96.383241950">
        <ele>2579.600</ele>
        <time>2020-01-21T18:24:13Z</time>
      </trkpt>
      <trkpt lat="17.034842970" lon="-96.383228090">
        <ele>2579.100</ele>
        <time>2020-01-21T18:24:18Z</time>
      </trkpt>
      <trkpt lat="17.034812000" lon="-96.383206870">
        <ele>2579.500</ele>
        <time>2020-01-21T18:25:24Z</time>
      </trkpt>
      <trkpt lat="17.034772630" lon="-96.383196700">
        <ele>2579.900</ele>
        <time>2020-01-21T18:25:31Z</time>
      </trkpt>
      <trkpt lat="17.034733350" lon="-96.383184340">
        <ele>2580.900</ele>
        <time>2020-01-21T18:25:38Z</time>
      </trkpt>
      <trkpt lat="17.034701550" lon="-96.383157220">
        <ele>2581.100</ele>
        <time>2020-01-21T18:25:45Z</time>
      </trkpt>
      <trkpt lat="17.034670160" lon="-96.383138070">
        <ele>2583.500</ele>
        <time>2020-01-21T18:25:52Z</time>
      </trkpt>
      <trkpt lat="17.034631390" lon="-96.383128240">
        <ele>2584.800</ele>
        <time>2020-01-21T18:25:58Z</time>
      </trkpt>
      <trkpt lat="17.034620560" lon="-96.383088850">
        <ele>2585.100</ele>
        <time>2020-01-21T18:26:11Z</time>
      </trkpt>
      <trkpt lat="17.034601240" lon="-96.383046640">
        <ele>2586.700</ele>
        <time>2020-01-21T18:26:53Z</time>
      </trkpt>
      <trkpt lat="17.034568480" lon="-96.383024810">
        <ele>2587.900</ele>
        <time>2020-01-21T18:26:57Z</time>
      </trkpt>
      <trkpt lat="17.034567100" lon="-96.382981600">
        <ele>2588.000</ele>
        <time>2020-01-21T18:27:03Z</time>
      </trkpt>
      <trkpt lat="17.034562400" lon="-96.382942490">
        <ele>2589.500</ele>
        <time>2020-01-21T18:27:08Z</time>
      </trkpt>
      <trkpt lat="17.034584320" lon="-96.382907750">
        <ele>2590.100</ele>
        <time>2020-01-21T18:27:15Z</time>
      </trkpt>
      <trkpt lat="17.034605190" lon="-96.382871510">
        <ele>2591.700</ele>
        <time>2020-01-21T18:27:23Z</time>
      </trkpt>
      <trkpt lat="17.034642440" lon="-96.382860680">
        <ele>2591.800</ele>
        <time>2020-01-21T18:27:30Z</time>
      </trkpt>
      <trkpt lat="17.034674560" lon="-96.382842930">
        <ele>2591.300</ele>
        <time>2020-01-21T18:27:36Z</time>
      </trkpt>
      <trkpt lat="17.034704180" lon="-96.382819260">
        <ele>2592.900</ele>
        <time>2020-01-21T18:27:49Z</time>
      </trkpt>
      <trkpt lat="17.034733910" lon="-96.382792200">
        <ele>2594.000</ele>
        <time>2020-01-21T18:27:56Z</time>
      </trkpt>
      <trkpt lat="17.034763080" lon="-96.382768370">
        <ele>2594.000</ele>
        <time>2020-01-21T18:28:02Z</time>
      </trkpt>
      <trkpt lat="17.034790070" lon="-96.382741050">
        <ele>2594.300</ele>
        <time>2020-01-21T18:28:07Z</time>
      </trkpt>
      <trkpt lat="17.034815500" lon="-96.382710290">
        <ele>2594.400</ele>
        <time>2020-01-21T18:28:12Z</time>
      </trkpt>
      <trkpt lat="17.034841880" lon="-96.382676610">
        <ele>2595.000</ele>
        <time>2020-01-21T18:28:18Z</time>
      </trkpt>
      <trkpt lat="17.034865030" lon="-96.382646520">
        <ele>2594.400</ele>
        <time>2020-01-21T18:28:23Z</time>
      </trkpt>
      <trkpt lat="17.034888300" lon="-96.382616180">
        <ele>2594.400</ele>
        <time>2020-01-21T18:28:29Z</time>
      </trkpt>
      <trkpt lat="17.034905320" lon="-96.382578440">
        <ele>2594.400</ele>
        <time>2020-01-21T18:28:38Z</time>
      </trkpt>
      <trkpt lat="17.034935070" lon="-96.382548550">
        <ele>2595.400</ele>
        <time>2020-01-21T18:28:44Z</time>
      </trkpt>
      <trkpt lat="17.034964560" lon="-96.382517770">
        <ele>2596.700</ele>
        <time>2020-01-21T18:28:51Z</time>
      </trkpt>
      <trkpt lat="17.034992700" lon="-96.382485990">
        <ele>2597.000</ele>
        <time>2020-01-21T18:28:57Z</time>
      </trkpt>
      <trkpt lat="17.035012120" lon="-96.382451870">
        <ele>2597.500</ele>
        <time>2020-01-21T18:29:03Z</time>
      </trkpt>
      <trkpt lat="17.035036860" lon="-96.382416820">
        <ele>2598.600</ele>
        <time>2020-01-21T18:29:10Z</time>
      </trkpt>
      <trkpt lat="17.035059320" lon="-96.382383240">
        <ele>2599.800</ele>
        <time>2020-01-21T18:29:17Z</time>
      </trkpt>
      <trkpt lat="17.035095770" lon="-96.382365860">
        <ele>2600.300</ele>
        <time>2020-01-21T18:29:26Z</time>
      </trkpt>
      <trkpt lat="17.035119590" lon="-96.382337510">
        <ele>2600.800</ele>
        <time>2020-01-21T18:29:32Z</time>
      </trkpt>
      <trkpt lat="17.035132300" lon="-96.382297880">
        <ele>2601.200</ele>
        <time>2020-01-21T18:29:38Z</time>
      </trkpt>
      <trkpt lat="17.035145980" lon="-96.382258590">
        <ele>2601.600</ele>
        <time>2020-01-21T18:29:45Z</time>
      </trkpt>
      <trkpt lat="17.035163400" lon="-96.382219930">
        <ele>2600.200</ele>
        <time>2020-01-21T18:29:53Z</time>
      </trkpt>
      <trkpt lat="17.035149560" lon="-96.382180600">
        <ele>2601.000</ele>
        <time>2020-01-21T18:29:59Z</time>
      </trkpt>
      <trkpt lat="17.035128680" lon="-96.382141190">
        <ele>2579.400</ele>
        <time>2020-01-21T18:30:36Z</time>
      </trkpt>
      <trkpt lat="17.035117700" lon="-96.382098410">
        <ele>2592.000</ele>
        <time>2020-01-21T18:30:41Z</time>
      </trkpt>
      <trkpt lat="17.035128310" lon="-96.382057280">
        <ele>2595.900</ele>
        <time>2020-01-21T18:30:47Z</time>
      </trkpt>
      <trkpt lat="17.035144430" lon="-96.382019590">
        <ele>2598.400</ele>
        <time>2020-01-21T18:30:52Z</time>
      </trkpt>
      <trkpt lat="17.035140750" lon="-96.381977850">
        <ele>2600.500</ele>
        <time>2020-01-21T18:30:58Z</time>
      </trkpt>
      <trkpt lat="17.035165190" lon="-96.381945560">
        <ele>2601.900</ele>
        <time>2020-01-21T18:31:05Z</time>
      </trkpt>
      <trkpt lat="17.035199930" lon="-96.381929540">
        <ele>2602.300</ele>
        <time>2020-01-21T18:31:10Z</time>
      </trkpt>
      <trkpt lat="17.035239030" lon="-96.381925670">
        <ele>2605.100</ele>
        <time>2020-01-21T18:32:52Z</time>
      </trkpt>
      <trkpt lat="17.035207510" lon="-96.381906350">
        <ele>2605.200</ele>
        <time>2020-01-21T18:33:36Z</time>
      </trkpt>
      <trkpt lat="17.035245660" lon="-96.381897270">
        <ele>2604.100</ele>
        <time>2020-01-21T18:38:04Z</time>
      </trkpt>
      <trkpt lat="17.035280520" lon="-96.381882820">
        <ele>2604.000</ele>
        <time>2020-01-21T18:38:09Z</time>
      </trkpt>
      <trkpt lat="17.035319070" lon="-96.381868070">
        <ele>2602.900</ele>
        <time>2020-01-21T18:38:16Z</time>
      </trkpt>
      <trkpt lat="17.035357420" lon="-96.381849490">
        <ele>2602.600</ele>
        <time>2020-01-21T18:38:22Z</time>
      </trkpt>
      <trkpt lat="17.035391930" lon="-96.381836400">
        <ele>2601.600</ele>
        <time>2020-01-21T18:38:27Z</time>
      </trkpt>
      <trkpt lat="17.035427790" lon="-96.381829660">
        <ele>2600.900</ele>
        <time>2020-01-21T18:38:32Z</time>
      </trkpt>
      <trkpt lat="17.035466840" lon="-96.381825040">
        <ele>2601.400</ele>
        <time>2020-01-21T18:38:37Z</time>
      </trkpt>
      <trkpt lat="17.035509670" lon="-96.381818320">
        <ele>2600.200</ele>
        <time>2020-01-21T18:38:43Z</time>
      </trkpt>
      <trkpt lat="17.035551480" lon="-96.381811660">
        <ele>2600.600</ele>
        <time>2020-01-21T18:38:48Z</time>
      </trkpt>
      <trkpt lat="17.035587150" lon="-96.381797590">
        <ele>2599.800</ele>
        <time>2020-01-21T18:38:53Z</time>
      </trkpt>
      <trkpt lat="17.035622620" lon="-96.381785890">
        <ele>2599.100</ele>
        <time>2020-01-21T18:38:58Z</time>
      </trkpt>
      <trkpt lat="17.035652890" lon="-96.381762560">
        <ele>2598.800</ele>
        <time>2020-01-21T18:39:03Z</time>
      </trkpt>
      <trkpt lat="17.035676890" lon="-96.381728440">
        <ele>2598.500</ele>
        <time>2020-01-21T18:39:09Z</time>
      </trkpt>
      <trkpt lat="17.035700510" lon="-96.381694530">
        <ele>2598.700</ele>
        <time>2020-01-21T18:39:15Z</time>
      </trkpt>
      <trkpt lat="17.035731750" lon="-96.381665320">
        <ele>2599.500</ele>
        <time>2020-01-21T18:39:20Z</time>
      </trkpt>
      <trkpt lat="17.035754320" lon="-96.381634310">
        <ele>2599.700</ele>
        <time>2020-01-21T18:39:25Z</time>
      </trkpt>
      <trkpt lat="17.035764530" lon="-96.381597250">
        <ele>2598.300</ele>
        <time>2020-01-21T18:40:36Z</time>
      </trkpt>
      <trkpt lat="17.035785700" lon="-96.381556760">
        <ele>2597.800</ele>
        <time>2020-01-21T18:40:41Z</time>
      </trkpt>
      <trkpt lat="17.035816010" lon="-96.381536110">
        <ele>2598.500</ele>
        <time>2020-01-21T18:40:45Z</time>
      </trkpt>
      <trkpt lat="17.035848050" lon="-96.381513410">
        <ele>2598.500</ele>
        <time>2020-01-21T18:40:51Z</time>
      </trkpt>
      <trkpt lat="17.035878690" lon="-96.381492300">
        <ele>2598.300</ele>
        <time>2020-01-21T18:40:56Z</time>
      </trkpt>
      <trkpt lat="17.035913770" lon="-96.381481070">
        <ele>2598.900</ele>
        <time>2020-01-21T18:41:03Z</time>
      </trkpt>
      <trkpt lat="17.035948630" lon="-96.381465150">
        <ele>2598.100</ele>
        <time>2020-01-21T18:41:08Z</time>
      </trkpt>
      <trkpt lat="17.035981180" lon="-96.381443490">
        <ele>2597.600</ele>
        <time>2020-01-21T18:41:13Z</time>
      </trkpt>
      <trkpt lat="17.036006240" lon="-96.381413050">
        <ele>2597.400</ele>
        <time>2020-01-21T18:41:18Z</time>
      </trkpt>
      <trkpt lat="17.036028680" lon="-96.381377480">
        <ele>2597.100</ele>
        <time>2020-01-21T18:41:23Z</time>
      </trkpt>
      <trkpt lat="17.036043460" lon="-96.381341720">
        <ele>2597.300</ele>
        <time>2020-01-21T18:41:28Z</time>
      </trkpt>
      <trkpt lat="17.036047340" lon="-96.381302220">
        <ele>2596.500</ele>
        <time>2020-01-21T18:41:38Z</time>
      </trkpt>
      <trkpt lat="17.036071480" lon="-96.381267620">
        <ele>2597.200</ele>
        <time>2020-01-21T18:41:44Z</time>
      </trkpt>
      <trkpt lat="17.036090500" lon="-96.381233730">
        <ele>2597.500</ele>
        <time>2020-01-21T18:41:50Z</time>
      </trkpt>
      <trkpt lat="17.036112220" lon="-96.381202410">
        <ele>2597.900</ele>
        <time>2020-01-21T18:41:55Z</time>
      </trkpt>
      <trkpt lat="17.036133060" lon="-96.381166230">
        <ele>2598.000</ele>
        <time>2020-01-21T18:42:01Z</time>
      </trkpt>
      <trkpt lat="17.036144460" lon="-96.381130300">
        <ele>2599.400</ele>
        <time>2020-01-21T18:42:07Z</time>
      </trkpt>
      <trkpt lat="17.036157030" lon="-96.381093130">
        <ele>2599.400</ele>
        <time>2020-01-21T18:42:12Z</time>
      </trkpt>
      <trkpt lat="17.036178440" lon="-96.381062230">
        <ele>2602.400</ele>
        <time>2020-01-21T18:42:37Z</time>
      </trkpt>
      <trkpt lat="17.036205030" lon="-96.381032050">
        <ele>2603.300</ele>
        <time>2020-01-21T18:42:42Z</time>
      </trkpt>
      <trkpt lat="17.036222730" lon="-96.380998800">
        <ele>2604.300</ele>
        <time>2020-01-21T18:42:47Z</time>
      </trkpt>
      <trkpt lat="17.036233520" lon="-96.380961460">
        <ele>2603.500</ele>
        <time>2020-01-21T18:42:53Z</time>
      </trkpt>
      <trkpt lat="17.036249250" lon="-96.380925560">
        <ele>2603.200</ele>
        <time>2020-01-21T18:43:04Z</time>
      </trkpt>
      <trkpt lat="17.036274360" lon="-96.380891210">
        <ele>2603.600</ele>
        <time>2020-01-21T18:43:09Z</time>
      </trkpt>
      <trkpt lat="17.036291310" lon="-96.380851550">
        <ele>2603.600</ele>
        <time>2020-01-21T18:43:15Z</time>
      </trkpt>
      <trkpt lat="17.036307720" lon="-96.380814370">
        <ele>2604.400</ele>
        <time>2020-01-21T18:43:21Z</time>
      </trkpt>
      <trkpt lat="17.036321620" lon="-96.380777140">
        <ele>2604.400</ele>
        <time>2020-01-21T18:43:43Z</time>
      </trkpt>
      <trkpt lat="17.036336180" lon="-96.380737760">
        <ele>2605.200</ele>
        <time>2020-01-21T18:43:55Z</time>
      </trkpt>
      <trkpt lat="17.036337890" lon="-96.380691390">
        <ele>2604.600</ele>
        <time>2020-01-21T18:44:02Z</time>
      </trkpt>
      <trkpt lat="17.036370900" lon="-96.380661130">
        <ele>2605.100</ele>
        <time>2020-01-21T18:44:07Z</time>
      </trkpt>
      <trkpt lat="17.036400680" lon="-96.380639530">
        <ele>2605.500</ele>
        <time>2020-01-21T18:44:11Z</time>
      </trkpt>
      <trkpt lat="17.036424510" lon="-96.380603780">
        <ele>2606.000</ele>
        <time>2020-01-21T18:44:17Z</time>
      </trkpt>
      <trkpt lat="17.036436600" lon="-96.380562300">
        <ele>2608.000</ele>
        <time>2020-01-21T18:44:24Z</time>
      </trkpt>
      <trkpt lat="17.036445590" lon="-96.380525870">
        <ele>2607.200</ele>
        <time>2020-01-21T18:44:29Z</time>
      </trkpt>
      <trkpt lat="17.036475750" lon="-96.380498910">
        <ele>2607.700</ele>
        <time>2020-01-21T18:44:34Z</time>
      </trkpt>
      <trkpt lat="17.036497970" lon="-96.380467400">
        <ele>2607.600</ele>
        <time>2020-01-21T18:44:39Z</time>
      </trkpt>
      <trkpt lat="17.036537440" lon="-96.380461530">
        <ele>2608.500</ele>
        <time>2020-01-21T18:44:54Z</time>
      </trkpt>
      <trkpt lat="17.036571430" lon="-96.380478970">
        <ele>2608.100</ele>
        <time>2020-01-21T18:45:01Z</time>
      </trkpt>
      <trkpt lat="17.036608800" lon="-96.380482020">
        <ele>2606.400</ele>
        <time>2020-01-21T18:45:10Z</time>
      </trkpt>
      <trkpt lat="17.036647270" lon="-96.380488910">
        <ele>2607.400</ele>
        <time>2020-01-21T18:45:44Z</time>
      </trkpt>
      <trkpt lat="17.036687020" lon="-96.380502150">
        <ele>2606.800</ele>
        <time>2020-01-21T18:45:53Z</time>
      </trkpt>
      <trkpt lat="17.036704830" lon="-96.380537850">
        <ele>2606.400</ele>
        <time>2020-01-21T18:46:04Z</time>
      </trkpt>
      <trkpt lat="17.036720790" lon="-96.380575460">
        <ele>2607.700</ele>
        <time>2020-01-21T18:46:12Z</time>
      </trkpt>
      <trkpt lat="17.036728800" lon="-96.380614090">
        <ele>2606.400</ele>
        <time>2020-01-21T18:46:18Z</time>
      </trkpt>
      <trkpt lat="17.036746590" lon="-96.380648240">
        <ele>2607.200</ele>
        <time>2020-01-21T18:46:25Z</time>
      </trkpt>
      <trkpt lat="17.036768170" lon="-96.380687340">
        <ele>2607.300</ele>
        <time>2020-01-21T18:46:33Z</time>
      </trkpt>
      <trkpt lat="17.036783710" lon="-96.380725510">
        <ele>2609.500</ele>
        <time>2020-01-21T18:46:40Z</time>
      </trkpt>
      <trkpt lat="17.036786460" lon="-96.380767700">
        <ele>2610.100</ele>
        <time>2020-01-21T18:46:50Z</time>
      </trkpt>
      <trkpt lat="17.036786670" lon="-96.380805650">
        <ele>2610.400</ele>
        <time>2020-01-21T18:47:06Z</time>
      </trkpt>
      <trkpt lat="17.036806650" lon="-96.380837300">
        <ele>2609.000</ele>
        <time>2020-01-21T18:47:12Z</time>
      </trkpt>
      <trkpt lat="17.036821040" lon="-96.380873490">
        <ele>2608.900</ele>
        <time>2020-01-21T18:47:17Z</time>
      </trkpt>
      <trkpt lat="17.036843320" lon="-96.380906640">
        <ele>2610.400</ele>
        <time>2020-01-21T18:47:22Z</time>
      </trkpt>
      <trkpt lat="17.036865010" lon="-96.380942340">
        <ele>2611.600</ele>
        <time>2020-01-21T18:47:28Z</time>
      </trkpt>
      <trkpt lat="17.036875360" lon="-96.380982310">
        <ele>2611.900</ele>
        <time>2020-01-21T18:47:34Z</time>
      </trkpt>
      <trkpt lat="17.036899020" lon="-96.381013530">
        <ele>2612.500</ele>
        <time>2020-01-21T18:47:39Z</time>
      </trkpt>
      <trkpt lat="17.036916240" lon="-96.381048850">
        <ele>2612.600</ele>
        <time>2020-01-21T18:47:44Z</time>
      </trkpt>
      <trkpt lat="17.036933270" lon="-96.381085290">
        <ele>2613.100</ele>
        <time>2020-01-21T18:47:49Z</time>
      </trkpt>
      <trkpt lat="17.036956140" lon="-96.381120250">
        <ele>2612.400</ele>
        <time>2020-01-21T18:47:55Z</time>
      </trkpt>
      <trkpt lat="17.036973420" lon="-96.381153550">
        <ele>2612.900</ele>
        <time>2020-01-21T18:48:00Z</time>
      </trkpt>
      <trkpt lat="17.036982650" lon="-96.381191900">
        <ele>2613.000</ele>
        <time>2020-01-21T18:48:05Z</time>
      </trkpt>
      <trkpt lat="17.037000930" lon="-96.381231640">
        <ele>2613.700</ele>
        <time>2020-01-21T18:48:10Z</time>
      </trkpt>
      <trkpt lat="17.037022410" lon="-96.381262940">
        <ele>2615.200</ele>
        <time>2020-01-21T18:48:17Z</time>
      </trkpt>
      <trkpt lat="17.037039050" lon="-96.381302410">
        <ele>2619.300</ele>
        <time>2020-01-21T19:05:51Z</time>
      </trkpt>
      <trkpt lat="17.037048420" lon="-96.381343070">
        <ele>2620.800</ele>
        <time>2020-01-21T19:05:56Z</time>
      </trkpt>
      <trkpt lat="17.037070350" lon="-96.381379700">
        <ele>2620.300</ele>
        <time>2020-01-21T19:06:01Z</time>
      </trkpt>
      <trkpt lat="17.037087320" lon="-96.381413680">
        <ele>2620.200</ele>
        <time>2020-01-21T19:06:05Z</time>
      </trkpt>
      <trkpt lat="17.037110560" lon="-96.381447400">
        <ele>2620.100</ele>
        <time>2020-01-21T19:06:10Z</time>
      </trkpt>
      <trkpt lat="17.037132670" lon="-96.381484010">
        <ele>2619.800</ele>
        <time>2020-01-21T19:06:15Z</time>
      </trkpt>
      <trkpt lat="17.037143220" lon="-96.381520300">
        <ele>2619.000</ele>
        <time>2020-01-21T19:06:20Z</time>
      </trkpt>
      <trkpt lat="17.037148590" lon="-96.381559970">
        <ele>2618.900</ele>
        <time>2020-01-21T19:06:29Z</time>
      </trkpt>
      <trkpt lat="17.037167460" lon="-96.381601320">
        <ele>2618.200</ele>
        <time>2020-01-21T19:06:35Z</time>
      </trkpt>
      <trkpt lat="17.037185700" lon="-96.381641230">
        <ele>2617.700</ele>
        <time>2020-01-21T19:06:39Z</time>
      </trkpt>
      <trkpt lat="17.037200820" lon="-96.381675420">
        <ele>2617.700</ele>
        <time>2020-01-21T19:06:43Z</time>
      </trkpt>
      <trkpt lat="17.037225680" lon="-96.381702910">
        <ele>2617.800</ele>
        <time>2020-01-21T19:06:50Z</time>
      </trkpt>
      <trkpt lat="17.037242770" lon="-96.381743750">
        <ele>2618.200</ele>
        <time>2020-01-21T19:07:25Z</time>
      </trkpt>
      <trkpt lat="17.037264910" lon="-96.381775640">
        <ele>2619.100</ele>
        <time>2020-01-21T19:07:30Z</time>
      </trkpt>
      <trkpt lat="17.037284050" lon="-96.381808880">
        <ele>2619.900</ele>
        <time>2020-01-21T19:07:35Z</time>
      </trkpt>
      <trkpt lat="17.037309500" lon="-96.381843750">
        <ele>2620.300</ele>
        <time>2020-01-21T19:07:42Z</time>
      </trkpt>
      <trkpt lat="17.037341810" lon="-96.381862940">
        <ele>2622.800</ele>
        <time>2020-01-21T19:07:49Z</time>
      </trkpt>
      <trkpt lat="17.037376510" lon="-96.381874700">
        <ele>2623.800</ele>
        <time>2020-01-21T19:07:55Z</time>
      </trkpt>
      <trkpt lat="17.037408010" lon="-96.381848260">
        <ele>2625.300</ele>
        <time>2020-01-21T19:08:02Z</time>
      </trkpt>
      <trkpt lat="17.037446250" lon="-96.381834980">
        <ele>2626.700</ele>
        <time>2020-01-21T19:08:09Z</time>
      </trkpt>
      <trkpt lat="17.037486540" lon="-96.381847170">
        <ele>2626.500</ele>
        <time>2020-01-21T19:08:16Z</time>
      </trkpt>
      <trkpt lat="17.037526290" lon="-96.381858650">
        <ele>2628.000</ele>
        <time>2020-01-21T19:08:44Z</time>
      </trkpt>
      <trkpt lat="17.037564060" lon="-96.381863420">
        <ele>2629.000</ele>
        <time>2020-01-21T19:08:49Z</time>
      </trkpt>
      <trkpt lat="17.037597370" lon="-96.381843610">
        <ele>2629.700</ele>
        <time>2020-01-21T19:08:55Z</time>
      </trkpt>
      <trkpt lat="17.037631670" lon="-96.381821500">
        <ele>2631.200</ele>
        <time>2020-01-21T19:09:01Z</time>
      </trkpt>
      <trkpt lat="17.037658270" lon="-96.381790440">
        <ele>2632.200</ele>
        <time>2020-01-21T19:09:07Z</time>
      </trkpt>
      <trkpt lat="17.037696120" lon="-96.381772880">
        <ele>2632.700</ele>
        <time>2020-01-21T19:09:13Z</time>
      </trkpt>
      <trkpt lat="17.037730090" lon="-96.381758080">
        <ele>2633.200</ele>
        <time>2020-01-21T19:09:23Z</time>
      </trkpt>
      <trkpt lat="17.037762610" lon="-96.381730920">
        <ele>2631.300</ele>
        <time>2020-01-21T19:13:14Z</time>
      </trkpt>
      <trkpt lat="17.037801540" lon="-96.381728270">
        <ele>2633.400</ele>
        <time>2020-01-21T19:13:20Z</time>
      </trkpt>
      <trkpt lat="17.037836250" lon="-96.381743580">
        <ele>2634.500</ele>
        <time>2020-01-21T19:13:26Z</time>
      </trkpt>
      <trkpt lat="17.037874540" lon="-96.381747990">
        <ele>2635.600</ele>
        <time>2020-01-21T19:13:33Z</time>
      </trkpt>
      <trkpt lat="17.037911280" lon="-96.381760090">
        <ele>2635.900</ele>
        <time>2020-01-21T19:13:39Z</time>
      </trkpt>
      <trkpt lat="17.037949360" lon="-96.381769120">
        <ele>2636.400</ele>
        <time>2020-01-21T19:13:45Z</time>
      </trkpt>
      <trkpt lat="17.037983420" lon="-96.381792290">
        <ele>2637.400</ele>
        <time>2020-01-21T19:13:53Z</time>
      </trkpt>
      <trkpt lat="17.038016910" lon="-96.381806800">
        <ele>2638.500</ele>
        <time>2020-01-21T19:14:01Z</time>
      </trkpt>
      <trkpt lat="17.038050400" lon="-96.381828690">
        <ele>2639.400</ele>
        <time>2020-01-21T19:14:09Z</time>
      </trkpt>
      <trkpt lat="17.038085000" lon="-96.381842270">
        <ele>2640.000</ele>
        <time>2020-01-21T19:14:14Z</time>
      </trkpt>
      <trkpt lat="17.038123130" lon="-96.381858590">
        <ele>2640.500</ele>
        <time>2020-01-21T19:14:20Z</time>
      </trkpt>
      <trkpt lat="17.038156790" lon="-96.381872850">
        <ele>2641.000</ele>
        <time>2020-01-21T19:14:25Z</time>
      </trkpt>
      <trkpt lat="17.038194790" lon="-96.381890630">
        <ele>2641.000</ele>
        <time>2020-01-21T19:14:31Z</time>
      </trkpt>
      <trkpt lat="17.038232550" lon="-96.381900290">
        <ele>2640.500</ele>
        <time>2020-01-21T19:14:37Z</time>
      </trkpt>
      <trkpt lat="17.038273030" lon="-96.381908750">
        <ele>2641.000</ele>
        <time>2020-01-21T19:14:43Z</time>
      </trkpt>
      <trkpt lat="17.038314190" lon="-96.381917580">
        <ele>2641.200</ele>
        <time>2020-01-21T19:14:49Z</time>
      </trkpt>
      <trkpt lat="17.038350520" lon="-96.381921420">
        <ele>2641.900</ele>
        <time>2020-01-21T19:14:55Z</time>
      </trkpt>
      <trkpt lat="17.038391180" lon="-96.381928790">
        <ele>2642.700</ele>
        <time>2020-01-21T19:15:01Z</time>
      </trkpt>
      <trkpt lat="17.038426490" lon="-96.381937920">
        <ele>2642.500</ele>
        <time>2020-01-21T19:15:06Z</time>
      </trkpt>
      <trkpt lat="17.038467070" lon="-96.381941680">
        <ele>2643.000</ele>
        <time>2020-01-21T19:15:12Z</time>
      </trkpt>
      <trkpt lat="17.038506810" lon="-96.381948890">
        <ele>2643.300</ele>
        <time>2020-01-21T19:15:18Z</time>
      </trkpt>
      <trkpt lat="17.038546810" lon="-96.381956890">
        <ele>2643.300</ele>
        <time>2020-01-21T19:15:24Z</time>
      </trkpt>
      <trkpt lat="17.038586970" lon="-96.381969740">
        <ele>2643.800</ele>
        <time>2020-01-21T19:15:30Z</time>
      </trkpt>
      <trkpt lat="17.038623160" lon="-96.381983000">
        <ele>2643.600</ele>
        <time>2020-01-21T19:15:35Z</time>
      </trkpt>
      <trkpt lat="17.038662530" lon="-96.381991740">
        <ele>2643.900</ele>
        <time>2020-01-21T19:15:41Z</time>
      </trkpt>
      <trkpt lat="17.038700130" lon="-96.382006440">
        <ele>2643.900</ele>
        <time>2020-01-21T19:15:47Z</time>
      </trkpt>
      <trkpt lat="17.038740560" lon="-96.382010170">
        <ele>2643.400</ele>
        <time>2020-01-21T19:15:53Z</time>
      </trkpt>
      <trkpt lat="17.038781430" lon="-96.382011120">
        <ele>2643.000</ele>
        <time>2020-01-21T19:15:59Z</time>
      </trkpt>
      <trkpt lat="17.038821610" lon="-96.382012840">
        <ele>2642.500</ele>
        <time>2020-01-21T19:16:06Z</time>
      </trkpt>
      <trkpt lat="17.038862170" lon="-96.382009050">
        <ele>2641.900</ele>
        <time>2020-01-21T19:16:13Z</time>
      </trkpt>
      <trkpt lat="17.038898360" lon="-96.382010590">
        <ele>2641.700</ele>
        <time>2020-01-21T19:16:20Z</time>
      </trkpt>
      <trkpt lat="17.038935600" lon="-96.382022190">
        <ele>2641.200</ele>
        <time>2020-01-21T19:16:26Z</time>
      </trkpt>
      <trkpt lat="17.038975520" lon="-96.382008540">
        <ele>2641.000</ele>
        <time>2020-01-21T19:16:32Z</time>
      </trkpt>
      <trkpt lat="17.039014010" lon="-96.382009760">
        <ele>2640.300</ele>
        <time>2020-01-21T19:16:38Z</time>
      </trkpt>
      <trkpt lat="17.039050710" lon="-96.382031830">
        <ele>2639.700</ele>
        <time>2020-01-21T19:16:44Z</time>
      </trkpt>
      <trkpt lat="17.039078220" lon="-96.382061960">
        <ele>2637.700</ele>
        <time>2020-01-21T19:16:50Z</time>
      </trkpt>
      <trkpt lat="17.039111800" lon="-96.382081200">
        <ele>2636.800</ele>
        <time>2020-01-21T19:16:56Z</time>
      </trkpt>
      <trkpt lat="17.039148360" lon="-96.382090870">
        <ele>2635.300</ele>
        <time>2020-01-21T19:17:02Z</time>
      </trkpt>
      <trkpt lat="17.039189910" lon="-96.382077260">
        <ele>2635.000</ele>
        <time>2020-01-21T19:17:08Z</time>
      </trkpt>
      <trkpt lat="17.039228640" lon="-96.382062600">
        <ele>2635.600</ele>
        <time>2020-01-21T19:17:15Z</time>
      </trkpt>
      <trkpt lat="17.039272490" lon="-96.382056230">
        <ele>2635.000</ele>
        <time>2020-01-21T19:17:21Z</time>
      </trkpt>
      <trkpt lat="17.039309390" lon="-96.382043720">
        <ele>2633.700</ele>
        <time>2020-01-21T19:17:28Z</time>
      </trkpt>
      <trkpt lat="17.039351890" lon="-96.382039250">
        <ele>2634.200</ele>
        <time>2020-01-21T19:17:35Z</time>
      </trkpt>
      <trkpt lat="17.039390520" lon="-96.382039080">
        <ele>2633.200</ele>
        <time>2020-01-21T19:17:40Z</time>
      </trkpt>
      <trkpt lat="17.039428220" lon="-96.382020870">
        <ele>2632.100</ele>
        <time>2020-01-21T19:17:45Z</time>
      </trkpt>
      <trkpt lat="17.039466960" lon="-96.382013780">
        <ele>2631.500</ele>
        <time>2020-01-21T19:18:19Z</time>
      </trkpt>
      <trkpt lat="17.039505450" lon="-96.382005900">
        <ele>2631.100</ele>
        <time>2020-01-21T19:18:25Z</time>
      </trkpt>
      <trkpt lat="17.039539590" lon="-96.381991460">
        <ele>2630.100</ele>
        <time>2020-01-21T19:18:31Z</time>
      </trkpt>
      <trkpt lat="17.039580990" lon="-96.381984540">
        <ele>2630.600</ele>
        <time>2020-01-21T19:18:37Z</time>
      </trkpt>
      <trkpt lat="17.039625660" lon="-96.381987880">
        <ele>2631.100</ele>
        <time>2020-01-21T19:18:43Z</time>
      </trkpt>
      <trkpt lat="17.039664300" lon="-96.381989540">
        <ele>2631.600</ele>
        <time>2020-01-21T19:18:48Z</time>
      </trkpt>
      <trkpt lat="17.039700900" lon="-96.381992800">
        <ele>2631.400</ele>
        <time>2020-01-21T19:18:53Z</time>
      </trkpt>
      <trkpt lat="17.039742910" lon="-96.381987860">
        <ele>2632.300</ele>
        <time>2020-01-21T19:18:58Z</time>
      </trkpt>
      <trkpt lat="17.039786750" lon="-96.381982480">
        <ele>2632.200</ele>
        <time>2020-01-21T19:19:03Z</time>
      </trkpt>
      <trkpt lat="17.039822680" lon="-96.381973980">
        <ele>2632.200</ele>
        <time>2020-01-21T19:19:07Z</time>
      </trkpt>
      <trkpt lat="17.039862550" lon="-96.381973500">
        <ele>2632.100</ele>
        <time>2020-01-21T19:19:12Z</time>
      </trkpt>
      <trkpt lat="17.039899900" lon="-96.381964740">
        <ele>2632.200</ele>
        <time>2020-01-21T19:19:16Z</time>
      </trkpt>
      <trkpt lat="17.039944090" lon="-96.381969020">
        <ele>2632.600</ele>
        <time>2020-01-21T19:19:21Z</time>
      </trkpt>
      <trkpt lat="17.039982720" lon="-96.381957940">
        <ele>2633.100</ele>
        <time>2020-01-21T19:19:26Z</time>
      </trkpt>
      <trkpt lat="17.040016400" lon="-96.381943430">
        <ele>2633.100</ele>
        <time>2020-01-21T19:19:30Z</time>
      </trkpt>
      <trkpt lat="17.040052680" lon="-96.381940380">
        <ele>2633.300</ele>
        <time>2020-01-21T19:19:34Z</time>
      </trkpt>
      <trkpt lat="17.040095500" lon="-96.381944280">
        <ele>2633.500</ele>
        <time>2020-01-21T19:19:40Z</time>
      </trkpt>
      <trkpt lat="17.040136810" lon="-96.381951550">
        <ele>2633.400</ele>
        <time>2020-01-21T19:19:45Z</time>
      </trkpt>
      <trkpt lat="17.040174210" lon="-96.381950550">
        <ele>2634.600</ele>
        <time>2020-01-21T19:19:52Z</time>
      </trkpt>
      <trkpt lat="17.040211690" lon="-96.381955030">
        <ele>2635.700</ele>
        <time>2020-01-21T19:19:58Z</time>
      </trkpt>
      <trkpt lat="17.040252930" lon="-96.381956530">
        <ele>2636.300</ele>
        <time>2020-01-21T19:20:03Z</time>
      </trkpt>
      <trkpt lat="17.040288640" lon="-96.381946490">
        <ele>2637.200</ele>
        <time>2020-01-21T19:20:09Z</time>
      </trkpt>
      <trkpt lat="17.040326720" lon="-96.381957670">
        <ele>2637.000</ele>
        <time>2020-01-21T19:20:31Z</time>
      </trkpt>
      <trkpt lat="17.040357530" lon="-96.381979610">
        <ele>2636.000</ele>
        <time>2020-01-21T19:20:35Z</time>
      </trkpt>
      <trkpt lat="17.040391910" lon="-96.382004900">
        <ele>2635.300</ele>
        <time>2020-01-21T19:20:40Z</time>
      </trkpt>
      <trkpt lat="17.040429340" lon="-96.382022970">
        <ele>2633.800</ele>
        <time>2020-01-21T19:20:46Z</time>
      </trkpt>
      <trkpt lat="17.040467830" lon="-96.382042570">
        <ele>2634.100</ele>
        <time>2020-01-21T19:21:13Z</time>
      </trkpt>
      <trkpt lat="17.040503830" lon="-96.382057250">
        <ele>2634.400</ele>
        <time>2020-01-21T19:21:19Z</time>
      </trkpt>
      <trkpt lat="17.040542530" lon="-96.382056130">
        <ele>2634.500</ele>
        <time>2020-01-21T19:21:24Z</time>
      </trkpt>
      <trkpt lat="17.040584760" lon="-96.382052350">
        <ele>2635.000</ele>
        <time>2020-01-21T19:21:29Z</time>
      </trkpt>
      <trkpt lat="17.040625910" lon="-96.382055000">
        <ele>2633.800</ele>
        <time>2020-01-21T19:21:35Z</time>
      </trkpt>
      <trkpt lat="17.040659550" lon="-96.382069450">
        <ele>2633.600</ele>
        <time>2020-01-21T19:21:39Z</time>
      </trkpt>
      <trkpt lat="17.040692390" lon="-96.382087740">
        <ele>2633.000</ele>
        <time>2020-01-21T19:21:43Z</time>
      </trkpt>
      <trkpt lat="17.040728950" lon="-96.382093420">
        <ele>2634.600</ele>
        <time>2020-01-21T19:21:49Z</time>
      </trkpt>
      <trkpt lat="17.040773490" lon="-96.382094660">
        <ele>2633.900</ele>
        <time>2020-01-21T19:21:54Z</time>
      </trkpt>
      <trkpt lat="17.040809520" lon="-96.382110670">
        <ele>2631.600</ele>
        <time>2020-01-21T19:21:58Z</time>
      </trkpt>
      <trkpt lat="17.040845170" lon="-96.382125040">
        <ele>2631.600</ele>
        <time>2020-01-21T19:22:02Z</time>
      </trkpt>
      <trkpt lat="17.040883570" lon="-96.382135310">
        <ele>2631.700</ele>
        <time>2020-01-21T19:22:07Z</time>
      </trkpt>
      <trkpt lat="17.040923930" lon="-96.382140310">
        <ele>2632.100</ele>
        <time>2020-01-21T19:22:12Z</time>
      </trkpt>
      <trkpt lat="17.040965230" lon="-96.382142660">
        <ele>2631.500</ele>
        <time>2020-01-21T19:22:18Z</time>
      </trkpt>
      <trkpt lat="17.041001460" lon="-96.382138520">
        <ele>2631.900</ele>
        <time>2020-01-21T19:22:23Z</time>
      </trkpt>
      <trkpt lat="17.041037880" lon="-96.382128170">
        <ele>2632.100</ele>
        <time>2020-01-21T19:22:31Z</time>
      </trkpt>
      <trkpt lat="17.041080180" lon="-96.382135770">
        <ele>2632.500</ele>
        <time>2020-01-21T19:22:51Z</time>
      </trkpt>
      <trkpt lat="17.041118250" lon="-96.382125930">
        <ele>2633.100</ele>
        <time>2020-01-21T19:22:56Z</time>
      </trkpt>
      <trkpt lat="17.041159850" lon="-96.382119240">
        <ele>2633.000</ele>
        <time>2020-01-21T19:23:01Z</time>
      </trkpt>
      <trkpt lat="17.041195320" lon="-96.382111330">
        <ele>2633.900</ele>
        <time>2020-01-21T19:23:07Z</time>
      </trkpt>
      <trkpt lat="17.041233190" lon="-96.382118870">
        <ele>2635.500</ele>
        <time>2020-01-21T19:23:12Z</time>
      </trkpt>
      <trkpt lat="17.041273200" lon="-96.382113940">
        <ele>2635.600</ele>
        <time>2020-01-21T19:23:17Z</time>
      </trkpt>
      <trkpt lat="17.041311070" lon="-96.382110300">
        <ele>2634.800</ele>
        <time>2020-01-21T19:23:22Z</time>
      </trkpt>
      <trkpt lat="17.041352030" lon="-96.382125270">
        <ele>2632.000</ele>
        <time>2020-01-21T19:23:28Z</time>
      </trkpt>
      <trkpt lat="17.041384320" lon="-96.382147850">
        <ele>2631.700</ele>
        <time>2020-01-21T19:23:32Z</time>
      </trkpt>
      <trkpt lat="17.041424300" lon="-96.382155100">
        <ele>2631.900</ele>
        <time>2020-01-21T19:23:39Z</time>
      </trkpt>
      <trkpt lat="17.041461520" lon="-96.382148670">
        <ele>2632.200</ele>
        <time>2020-01-21T19:23:44Z</time>
      </trkpt>
      <trkpt lat="17.041496390" lon="-96.382138530">
        <ele>2631.600</ele>
        <time>2020-01-21T19:23:49Z</time>
      </trkpt>
      <trkpt lat="17.041532550" lon="-96.382126660">
        <ele>2629.800</ele>
        <time>2020-01-21T19:23:54Z</time>
      </trkpt>
      <trkpt lat="17.041571030" lon="-96.382119470">
        <ele>2631.700</ele>
        <time>2020-01-21T19:23:59Z</time>
      </trkpt>
      <trkpt lat="17.041612920" lon="-96.382110640">
        <ele>2633.600</ele>
        <time>2020-01-21T19:24:05Z</time>
      </trkpt>
      <trkpt lat="17.041652570" lon="-96.382126760">
        <ele>2633.900</ele>
        <time>2020-01-21T19:24:10Z</time>
      </trkpt>
      <trkpt lat="17.041688210" lon="-96.382148590">
        <ele>2633.900</ele>
        <time>2020-01-21T19:24:14Z</time>
      </trkpt>
      <trkpt lat="17.041726000" lon="-96.382132440">
        <ele>2635.100</ele>
        <time>2020-01-21T19:24:19Z</time>
      </trkpt>
      <trkpt lat="17.041763810" lon="-96.382139690">
        <ele>2633.400</ele>
        <time>2020-01-21T19:24:24Z</time>
      </trkpt>
      <trkpt lat="17.041800770" lon="-96.382145050">
        <ele>2630.800</ele>
        <time>2020-01-21T19:24:29Z</time>
      </trkpt>
      <trkpt lat="17.041838410" lon="-96.382132520">
        <ele>2630.800</ele>
        <time>2020-01-21T19:24:33Z</time>
      </trkpt>
      <trkpt lat="17.041876020" lon="-96.382107260">
        <ele>2631.800</ele>
        <time>2020-01-21T19:24:38Z</time>
      </trkpt>
      <trkpt lat="17.041895610" lon="-96.382074380">
        <ele>2630.800</ele>
        <time>2020-01-21T19:24:44Z</time>
      </trkpt>
      <trkpt lat="17.041933650" lon="-96.382067690">
        <ele>2630.500</ele>
        <time>2020-01-21T19:25:36Z</time>
      </trkpt>
      <trkpt lat="17.041960950" lon="-96.382041710">
        <ele>2627.200</ele>
        <time>2020-01-21T19:25:41Z</time>
      </trkpt>
      <trkpt lat="17.041994550" lon="-96.382015010">
        <ele>2627.600</ele>
        <time>2020-01-21T19:25:46Z</time>
      </trkpt>
      <trkpt lat="17.042031410" lon="-96.382008810">
        <ele>2627.600</ele>
        <time>2020-01-21T19:25:51Z</time>
      </trkpt>
      <trkpt lat="17.042071460" lon="-96.381999130">
        <ele>2629.000</ele>
        <time>2020-01-21T19:25:56Z</time>
      </trkpt>
      <trkpt lat="17.042106410" lon="-96.381985200">
        <ele>2629.200</ele>
        <time>2020-01-21T19:26:01Z</time>
      </trkpt>
      <trkpt lat="17.042132600" lon="-96.381956410">
        <ele>2628.100</ele>
        <time>2020-01-21T19:26:07Z</time>
      </trkpt>
      <trkpt lat="17.042167120" lon="-96.381927770">
        <ele>2630.600</ele>
        <time>2020-01-21T19:26:12Z</time>
      </trkpt>
      <trkpt lat="17.042203060" lon="-96.381911210">
        <ele>2631.500</ele>
        <time>2020-01-21T19:26:16Z</time>
      </trkpt>
      <trkpt lat="17.042239170" lon="-96.381907590">
        <ele>2632.900</ele>
        <time>2020-01-21T19:26:20Z</time>
      </trkpt>
      <trkpt lat="17.042274910" lon="-96.381901350">
        <ele>2633.900</ele>
        <time>2020-01-21T19:26:24Z</time>
      </trkpt>
      <trkpt lat="17.042311480" lon="-96.381890380">
        <ele>2634.700</ele>
        <time>2020-01-21T19:26:29Z</time>
      </trkpt>
      <trkpt lat="17.042346290" lon="-96.381873980">
        <ele>2634.700</ele>
        <time>2020-01-21T19:26:34Z</time>
      </trkpt>
      <trkpt lat="17.042381110" lon="-96.381857470">
        <ele>2635.000</ele>
        <time>2020-01-21T19:26:39Z</time>
      </trkpt>
      <trkpt lat="17.042414450" lon="-96.381830960">
        <ele>2635.500</ele>
        <time>2020-01-21T19:26:48Z</time>
      </trkpt>
      <trkpt lat="17.042444890" lon="-96.381809680">
        <ele>2635.400</ele>
        <time>2020-01-21T19:26:52Z</time>
      </trkpt>
      <trkpt lat="17.042476500" lon="-96.381790380">
        <ele>2635.500</ele>
        <time>2020-01-21T19:26:56Z</time>
      </trkpt>
      <trkpt lat="17.042513290" lon="-96.381784260">
        <ele>2635.500</ele>
        <time>2020-01-21T19:27:01Z</time>
      </trkpt>
      <trkpt lat="17.042544680" lon="-96.381760780">
        <ele>2636.400</ele>
        <time>2020-01-21T19:27:28Z</time>
      </trkpt>
      <trkpt lat="17.042568930" lon="-96.381731130">
        <ele>2637.200</ele>
        <time>2020-01-21T19:27:32Z</time>
      </trkpt>
      <trkpt lat="17.042598470" lon="-96.381707420">
        <ele>2637.200</ele>
        <time>2020-01-21T19:27:36Z</time>
      </trkpt>
      <trkpt lat="17.042634310" lon="-96.381688760">
        <ele>2637.700</ele>
        <time>2020-01-21T19:27:40Z</time>
      </trkpt>
      <trkpt lat="17.042668190" lon="-96.381656790">
        <ele>2639.000</ele>
        <time>2020-01-21T19:27:46Z</time>
      </trkpt>
      <trkpt lat="17.042696030" lon="-96.381628890">
        <ele>2639.500</ele>
        <time>2020-01-21T19:27:53Z</time>
      </trkpt>
      <trkpt lat="17.042724310" lon="-96.381601730">
        <ele>2639.700</ele>
        <time>2020-01-21T19:27:59Z</time>
      </trkpt>
      <trkpt lat="17.042763300" lon="-96.381580750">
        <ele>2640.800</ele>
        <time>2020-01-21T19:28:05Z</time>
      </trkpt>
      <trkpt lat="17.042797950" lon="-96.381561320">
        <ele>2641.500</ele>
        <time>2020-01-21T19:28:11Z</time>
      </trkpt>
      <trkpt lat="17.042827660" lon="-96.381535220">
        <ele>2641.900</ele>
        <time>2020-01-21T19:28:15Z</time>
      </trkpt>
      <trkpt lat="17.042858620" lon="-96.381507620">
        <ele>2641.600</ele>
        <time>2020-01-21T19:28:20Z</time>
      </trkpt>
      <trkpt lat="17.042878760" lon="-96.381469710">
        <ele>2640.000</ele>
        <time>2020-01-21T19:28:24Z</time>
      </trkpt>
      <trkpt lat="17.042898150" lon="-96.381435560">
        <ele>2639.300</ele>
        <time>2020-01-21T19:28:28Z</time>
      </trkpt>
      <trkpt lat="17.042925820" lon="-96.381400900">
        <ele>2639.900</ele>
        <time>2020-01-21T19:28:33Z</time>
      </trkpt>
      <trkpt lat="17.042958650" lon="-96.381378110">
        <ele>2642.100</ele>
        <time>2020-01-21T19:28:39Z</time>
      </trkpt>
      <trkpt lat="17.042969760" lon="-96.381342220">
        <ele>2642.900</ele>
        <time>2020-01-21T19:28:45Z</time>
      </trkpt>
      <trkpt lat="17.042982210" lon="-96.381301520">
        <ele>2644.400</ele>
        <time>2020-01-21T19:28:53Z</time>
      </trkpt>
      <trkpt lat="17.042986350" lon="-96.381256860">
        <ele>2646.200</ele>
        <time>2020-01-21T19:28:58Z</time>
      </trkpt>
      <trkpt lat="17.042989580" lon="-96.381217650">
        <ele>2646.300</ele>
        <time>2020-01-21T19:29:03Z</time>
      </trkpt>
      <trkpt lat="17.043012470" lon="-96.381185750">
        <ele>2646.400</ele>
        <time>2020-01-21T19:29:12Z</time>
      </trkpt>
      <trkpt lat="17.043021950" lon="-96.381148320">
        <ele>2645.300</ele>
        <time>2020-01-21T19:29:17Z</time>
      </trkpt>
      <trkpt lat="17.043044550" lon="-96.381117600">
        <ele>2647.100</ele>
        <time>2020-01-21T19:29:24Z</time>
      </trkpt>
      <trkpt lat="17.043072560" lon="-96.381091460">
        <ele>2647.400</ele>
        <time>2020-01-21T19:29:30Z</time>
      </trkpt>
      <trkpt lat="17.043097160" lon="-96.381063380">
        <ele>2648.100</ele>
        <time>2020-01-21T19:29:36Z</time>
      </trkpt>
      <trkpt lat="17.043117800" lon="-96.381028240">
        <ele>2648.400</ele>
        <time>2020-01-21T19:29:44Z</time>
      </trkpt>
      <trkpt lat="17.043127390" lon="-96.380990180">
        <ele>2648.300</ele>
        <time>2020-01-21T19:29:53Z</time>
      </trkpt>
      <trkpt lat="17.043144980" lon="-96.380949410">
        <ele>2649.000</ele>
        <time>2020-01-21T19:29:59Z</time>
      </trkpt>
      <trkpt lat="17.043161020" lon="-96.380912190">
        <ele>2650.700</ele>
        <time>2020-01-21T19:30:07Z</time>
      </trkpt>
      <trkpt lat="17.043154720" lon="-96.380873090">
        <ele>2650.700</ele>
        <time>2020-01-21T19:30:40Z</time>
      </trkpt>
      <trkpt lat="17.043147640" lon="-96.380834650">
        <ele>2650.600</ele>
        <time>2020-01-21T19:30:45Z</time>
      </trkpt>
      <trkpt lat="17.043150680" lon="-96.380795010">
        <ele>2649.800</ele>
        <time>2020-01-21T19:30:51Z</time>
      </trkpt>
      <trkpt lat="17.043172530" lon="-96.380764050">
        <ele>2651.100</ele>
        <time>2020-01-21T19:30:58Z</time>
      </trkpt>
      <trkpt lat="17.043186570" lon="-96.380724380">
        <ele>2651.300</ele>
        <time>2020-01-21T19:31:03Z</time>
      </trkpt>
      <trkpt lat="17.043201570" lon="-96.380686510">
        <ele>2652.600</ele>
        <time>2020-01-21T19:31:09Z</time>
      </trkpt>
      <trkpt lat="17.043213690" lon="-96.380649930">
        <ele>2652.400</ele>
        <time>2020-01-21T19:31:14Z</time>
      </trkpt>
      <trkpt lat="17.043195440" lon="-96.380608900">
        <ele>2651.900</ele>
        <time>2020-01-21T19:31:20Z</time>
      </trkpt>
      <trkpt lat="17.043207600" lon="-96.380570590">
        <ele>2652.400</ele>
        <time>2020-01-21T19:31:26Z</time>
      </trkpt>
      <trkpt lat="17.043206210" lon="-96.380532020">
        <ele>2652.600</ele>
        <time>2020-01-21T19:31:32Z</time>
      </trkpt>
      <trkpt lat="17.043213780" lon="-96.380494500">
        <ele>2654.400</ele>
        <time>2020-01-21T19:31:39Z</time>
      </trkpt>
      <trkpt lat="17.043211560" lon="-96.380452080">
        <ele>2655.200</ele>
        <time>2020-01-21T19:31:45Z</time>
      </trkpt>
      <trkpt lat="17.043202780" lon="-96.380409540">
        <ele>2655.100</ele>
        <time>2020-01-21T19:31:50Z</time>
      </trkpt>
      <trkpt lat="17.043201730" lon="-96.380366040">
        <ele>2656.200</ele>
        <time>2020-01-21T19:31:56Z</time>
      </trkpt>
      <trkpt lat="17.043193710" lon="-96.380368570">
        <ele>2657.000</ele>
        <time>2020-01-21T19:32:04Z</time>
      </trkpt>
    </trkseg>
  </trk>
</gpx>
